<?xml version="1.0" encoding="UTF-8" standalone="no" ?>
<gpx xmlns="http://www.topografix.com/GPX/1/1" xmlns:xsi="http://www.w3.org/2001/XMLSchema-instance" xsi:schemaLocation="http://www.topografix.com/GPX/1/1 http://www.topografix.com/GPX/1/1/gpx.xsd" version="1.1" creator="VisuGPX - https://www.visugpx.com">
  <metadata>
    <name>tour becherelles</name>
  </metadata>
  <trk>
    <name><![CDATA[tour becherelles_1]]></name>
    <trkseg>
      <trkpt lat="48.51095" lon="3.10043">
        <ele>112.1</ele>
        <time>2021-04-26T12:24:10Z</time>
      </trkpt>
      <trkpt lat="48.51093" lon="3.10051">
        <ele>112.6</ele>
        <time>2021-04-26T12:25:34Z</time>
      </trkpt>
      <trkpt lat="48.5109" lon="3.10044">
        <ele>112.9</ele>
        <time>2021-04-26T12:25:41Z</time>
      </trkpt>
      <trkpt lat="48.51085" lon="3.10047">
        <ele>113</ele>
        <time>2021-04-26T12:26:15Z</time>
      </trkpt>
      <trkpt lat="48.51088" lon="3.10053">
        <ele>113.3</ele>
        <time>2021-04-26T12:26:22Z</time>
      </trkpt>
      <trkpt lat="48.51092" lon="3.10057">
        <ele>113.5</ele>
        <time>2021-04-26T12:26:26Z</time>
      </trkpt>
      <trkpt lat="48.51096" lon="3.10063">
        <ele>113.7</ele>
        <time>2021-04-26T12:26:30Z</time>
      </trkpt>
      <trkpt lat="48.51101" lon="3.10068">
        <ele>113.9</ele>
        <time>2021-04-26T12:26:34Z</time>
      </trkpt>
      <trkpt lat="48.51106" lon="3.10073">
        <ele>114.1</ele>
        <time>2021-04-26T12:26:38Z</time>
      </trkpt>
      <trkpt lat="48.5111" lon="3.10078">
        <ele>114.3</ele>
        <time>2021-04-26T12:26:42Z</time>
      </trkpt>
      <trkpt lat="48.51115" lon="3.10082">
        <ele>114.5</ele>
        <time>2021-04-26T12:26:46Z</time>
      </trkpt>
      <trkpt lat="48.5112" lon="3.10085">
        <ele>114.8</ele>
        <time>2021-04-26T12:26:50Z</time>
      </trkpt>
      <trkpt lat="48.51124" lon="3.10089">
        <ele>115.3</ele>
        <time>2021-04-26T12:26:56Z</time>
      </trkpt>
      <trkpt lat="48.51128" lon="3.10094">
        <ele>115.9</ele>
        <time>2021-04-26T12:27:00Z</time>
      </trkpt>
      <trkpt lat="48.51132" lon="3.10097">
        <ele>116.8</ele>
        <time>2021-04-26T12:27:04Z</time>
      </trkpt>
      <trkpt lat="48.51136" lon="3.10101">
        <ele>117.4</ele>
        <time>2021-04-26T12:27:08Z</time>
      </trkpt>
      <trkpt lat="48.5114" lon="3.10105">
        <ele>118</ele>
        <time>2021-04-26T12:27:12Z</time>
      </trkpt>
      <trkpt lat="48.51144" lon="3.1011">
        <ele>118.7</ele>
        <time>2021-04-26T12:27:17Z</time>
      </trkpt>
      <trkpt lat="48.51149" lon="3.10114">
        <ele>119.3</ele>
        <time>2021-04-26T12:27:21Z</time>
      </trkpt>
      <trkpt lat="48.51153" lon="3.10118">
        <ele>119.9</ele>
        <time>2021-04-26T12:27:25Z</time>
      </trkpt>
      <trkpt lat="48.51157" lon="3.10122">
        <ele>120.5</ele>
        <time>2021-04-26T12:27:29Z</time>
      </trkpt>
      <trkpt lat="48.51161" lon="3.10126">
        <ele>121.1</ele>
        <time>2021-04-26T12:27:33Z</time>
      </trkpt>
      <trkpt lat="48.51165" lon="3.10132">
        <ele>121.5</ele>
        <time>2021-04-26T12:27:37Z</time>
      </trkpt>
      <trkpt lat="48.51169" lon="3.10137">
        <ele>121.9</ele>
        <time>2021-04-26T12:27:41Z</time>
      </trkpt>
      <trkpt lat="48.51174" lon="3.10143">
        <ele>122.2</ele>
        <time>2021-04-26T12:27:45Z</time>
      </trkpt>
      <trkpt lat="48.51179" lon="3.10148">
        <ele>122.6</ele>
        <time>2021-04-26T12:27:49Z</time>
      </trkpt>
      <trkpt lat="48.51184" lon="3.10153">
        <ele>123.1</ele>
        <time>2021-04-26T12:27:53Z</time>
      </trkpt>
      <trkpt lat="48.51187" lon="3.10158">
        <ele>123.5</ele>
        <time>2021-04-26T12:27:57Z</time>
      </trkpt>
      <trkpt lat="48.51189" lon="3.10164">
        <ele>123.8</ele>
        <time>2021-04-26T12:28:01Z</time>
      </trkpt>
      <trkpt lat="48.51193" lon="3.10171">
        <ele>124.3</ele>
        <time>2021-04-26T12:28:06Z</time>
      </trkpt>
      <trkpt lat="48.51195" lon="3.10177">
        <ele>125</ele>
        <time>2021-04-26T12:28:10Z</time>
      </trkpt>
      <trkpt lat="48.51199" lon="3.10183">
        <ele>126.1</ele>
        <time>2021-04-26T12:28:15Z</time>
      </trkpt>
      <trkpt lat="48.51202" lon="3.10189">
        <ele>126.8</ele>
        <time>2021-04-26T12:28:21Z</time>
      </trkpt>
      <trkpt lat="48.512" lon="3.10196">
        <ele>127.3</ele>
        <time>2021-04-26T12:28:27Z</time>
      </trkpt>
      <trkpt lat="48.51198" lon="3.10203">
        <ele>127.9</ele>
        <time>2021-04-26T12:28:32Z</time>
      </trkpt>
      <trkpt lat="48.51195" lon="3.10209">
        <ele>128.5</ele>
        <time>2021-04-26T12:28:37Z</time>
      </trkpt>
      <trkpt lat="48.51191" lon="3.10213">
        <ele>129.6</ele>
        <time>2021-04-26T12:28:43Z</time>
      </trkpt>
      <trkpt lat="48.51187" lon="3.10218">
        <ele>130.2</ele>
        <time>2021-04-26T12:28:48Z</time>
      </trkpt>
      <trkpt lat="48.51186" lon="3.10226">
        <ele>131</ele>
        <time>2021-04-26T12:28:52Z</time>
      </trkpt>
      <trkpt lat="48.51185" lon="3.10234">
        <ele>131.7</ele>
        <time>2021-04-26T12:28:56Z</time>
      </trkpt>
      <trkpt lat="48.51183" lon="3.1024">
        <ele>132.3</ele>
        <time>2021-04-26T12:29:00Z</time>
      </trkpt>
      <trkpt lat="48.51181" lon="3.10248">
        <ele>133</ele>
        <time>2021-04-26T12:29:04Z</time>
      </trkpt>
      <trkpt lat="48.51179" lon="3.10254">
        <ele>133.6</ele>
        <time>2021-04-26T12:29:08Z</time>
      </trkpt>
      <trkpt lat="48.51176" lon="3.10259">
        <ele>134.1</ele>
        <time>2021-04-26T12:29:12Z</time>
      </trkpt>
      <trkpt lat="48.51172" lon="3.10264">
        <ele>134.5</ele>
        <time>2021-04-26T12:29:16Z</time>
      </trkpt>
      <trkpt lat="48.51169" lon="3.10269">
        <ele>134.9</ele>
        <time>2021-04-26T12:29:21Z</time>
      </trkpt>
      <trkpt lat="48.51167" lon="3.10277">
        <ele>135.1</ele>
        <time>2021-04-26T12:29:25Z</time>
      </trkpt>
      <trkpt lat="48.51165" lon="3.10285">
        <ele>135.4</ele>
        <time>2021-04-26T12:29:29Z</time>
      </trkpt>
      <trkpt lat="48.51162" lon="3.10292">
        <ele>135.7</ele>
        <time>2021-04-26T12:29:33Z</time>
      </trkpt>
      <trkpt lat="48.5116" lon="3.10297">
        <ele>136</ele>
        <time>2021-04-26T12:29:37Z</time>
      </trkpt>
      <trkpt lat="48.51157" lon="3.10304">
        <ele>136.4</ele>
        <time>2021-04-26T12:29:42Z</time>
      </trkpt>
      <trkpt lat="48.51154" lon="3.10311">
        <ele>136.9</ele>
        <time>2021-04-26T12:29:47Z</time>
      </trkpt>
      <trkpt lat="48.5115" lon="3.10317">
        <ele>137.4</ele>
        <time>2021-04-26T12:29:52Z</time>
      </trkpt>
      <trkpt lat="48.51148" lon="3.10324">
        <ele>138</ele>
        <time>2021-04-26T12:29:56Z</time>
      </trkpt>
      <trkpt lat="48.51145" lon="3.10329">
        <ele>138.6</ele>
        <time>2021-04-26T12:30:05Z</time>
      </trkpt>
      <trkpt lat="48.5114" lon="3.10328">
        <ele>138.8</ele>
        <time>2021-04-26T12:30:11Z</time>
      </trkpt>
      <trkpt lat="48.51135" lon="3.10328">
        <ele>139</ele>
        <time>2021-04-26T12:30:15Z</time>
      </trkpt>
      <trkpt lat="48.5113" lon="3.10327">
        <ele>139.3</ele>
        <time>2021-04-26T12:30:20Z</time>
      </trkpt>
      <trkpt lat="48.51124" lon="3.10325">
        <ele>139.9</ele>
        <time>2021-04-26T12:30:26Z</time>
      </trkpt>
      <trkpt lat="48.5112" lon="3.10316">
        <ele>140.1</ele>
        <time>2021-04-26T12:30:30Z</time>
      </trkpt>
      <trkpt lat="48.51117" lon="3.10306">
        <ele>139.9</ele>
        <time>2021-04-26T12:30:34Z</time>
      </trkpt>
      <trkpt lat="48.51114" lon="3.103">
        <ele>139.5</ele>
        <time>2021-04-26T12:30:38Z</time>
      </trkpt>
      <trkpt lat="48.51109" lon="3.10296">
        <ele>139</ele>
        <time>2021-04-26T12:30:44Z</time>
      </trkpt>
      <trkpt lat="48.51105" lon="3.10296">
        <ele>139.1</ele>
        <time>2021-04-26T12:30:50Z</time>
      </trkpt>
      <trkpt lat="48.511" lon="3.10293">
        <ele>137.6</ele>
        <time>2021-04-26T12:31:05Z</time>
      </trkpt>
      <trkpt lat="48.51095" lon="3.10289">
        <ele>136.7</ele>
        <time>2021-04-26T12:31:11Z</time>
      </trkpt>
      <trkpt lat="48.51091" lon="3.10286">
        <ele>136.3</ele>
        <time>2021-04-26T12:31:15Z</time>
      </trkpt>
      <trkpt lat="48.51087" lon="3.10283">
        <ele>135.9</ele>
        <time>2021-04-26T12:31:19Z</time>
      </trkpt>
      <trkpt lat="48.51082" lon="3.1028">
        <ele>135.7</ele>
        <time>2021-04-26T12:31:23Z</time>
      </trkpt>
      <trkpt lat="48.51078" lon="3.10278">
        <ele>135.8</ele>
        <time>2021-04-26T12:31:27Z</time>
      </trkpt>
      <trkpt lat="48.51072" lon="3.10278">
        <ele>136</ele>
        <time>2021-04-26T12:31:31Z</time>
      </trkpt>
      <trkpt lat="48.51068" lon="3.10284">
        <ele>136.2</ele>
        <time>2021-04-26T12:31:36Z</time>
      </trkpt>
      <trkpt lat="48.51065" lon="3.10291">
        <ele>136.3</ele>
        <time>2021-04-26T12:31:40Z</time>
      </trkpt>
      <trkpt lat="48.51063" lon="3.103">
        <ele>136.5</ele>
        <time>2021-04-26T12:31:44Z</time>
      </trkpt>
      <trkpt lat="48.51061" lon="3.10309">
        <ele>136.7</ele>
        <time>2021-04-26T12:31:48Z</time>
      </trkpt>
      <trkpt lat="48.51059" lon="3.10316">
        <ele>136.9</ele>
        <time>2021-04-26T12:31:52Z</time>
      </trkpt>
      <trkpt lat="48.51057" lon="3.10322">
        <ele>137.2</ele>
        <time>2021-04-26T12:31:56Z</time>
      </trkpt>
      <trkpt lat="48.51056" lon="3.10329">
        <ele>137.5</ele>
        <time>2021-04-26T12:32:00Z</time>
      </trkpt>
      <trkpt lat="48.51054" lon="3.10336">
        <ele>137.7</ele>
        <time>2021-04-26T12:32:04Z</time>
      </trkpt>
      <trkpt lat="48.51051" lon="3.10342">
        <ele>137.9</ele>
        <time>2021-04-26T12:32:08Z</time>
      </trkpt>
      <trkpt lat="48.51049" lon="3.10349">
        <ele>137.9</ele>
        <time>2021-04-26T12:32:12Z</time>
      </trkpt>
      <trkpt lat="48.51047" lon="3.10355">
        <ele>138</ele>
        <time>2021-04-26T12:32:16Z</time>
      </trkpt>
      <trkpt lat="48.51045" lon="3.10362">
        <ele>138.1</ele>
        <time>2021-04-26T12:32:20Z</time>
      </trkpt>
      <trkpt lat="48.51043" lon="3.10369">
        <ele>138.5</ele>
        <time>2021-04-26T12:32:25Z</time>
      </trkpt>
      <trkpt lat="48.51041" lon="3.10375">
        <ele>138.7</ele>
        <time>2021-04-26T12:32:31Z</time>
      </trkpt>
      <trkpt lat="48.51037" lon="3.10381">
        <ele>138.9</ele>
        <time>2021-04-26T12:32:44Z</time>
      </trkpt>
      <trkpt lat="48.51037" lon="3.10388">
        <ele>139.4</ele>
        <time>2021-04-26T12:32:50Z</time>
      </trkpt>
      <trkpt lat="48.51037" lon="3.10395">
        <ele>144.5</ele>
        <time>2021-04-26T12:33:28Z</time>
      </trkpt>
      <trkpt lat="48.51034" lon="3.10402">
        <ele>143.9</ele>
        <time>2021-04-26T12:33:34Z</time>
      </trkpt>
      <trkpt lat="48.51032" lon="3.10408">
        <ele>143.3</ele>
        <time>2021-04-26T12:33:40Z</time>
      </trkpt>
      <trkpt lat="48.51029" lon="3.10414">
        <ele>142.8</ele>
        <time>2021-04-26T12:33:46Z</time>
      </trkpt>
      <trkpt lat="48.51028" lon="3.10422">
        <ele>142.4</ele>
        <time>2021-04-26T12:33:51Z</time>
      </trkpt>
      <trkpt lat="48.51026" lon="3.10429">
        <ele>142</ele>
        <time>2021-04-26T12:33:56Z</time>
      </trkpt>
      <trkpt lat="48.51024" lon="3.10437">
        <ele>141.5</ele>
        <time>2021-04-26T12:34:01Z</time>
      </trkpt>
      <trkpt lat="48.51023" lon="3.10446">
        <ele>141.1</ele>
        <time>2021-04-26T12:34:05Z</time>
      </trkpt>
      <trkpt lat="48.51022" lon="3.10456">
        <ele>140.7</ele>
        <time>2021-04-26T12:34:09Z</time>
      </trkpt>
      <trkpt lat="48.51021" lon="3.10464">
        <ele>140.5</ele>
        <time>2021-04-26T12:34:13Z</time>
      </trkpt>
      <trkpt lat="48.51019" lon="3.10471">
        <ele>140.3</ele>
        <time>2021-04-26T12:34:17Z</time>
      </trkpt>
      <trkpt lat="48.51017" lon="3.10478">
        <ele>140.1</ele>
        <time>2021-04-26T12:34:21Z</time>
      </trkpt>
      <trkpt lat="48.51015" lon="3.10485">
        <ele>140</ele>
        <time>2021-04-26T12:34:25Z</time>
      </trkpt>
      <trkpt lat="48.51014" lon="3.10492">
        <ele>139.8</ele>
        <time>2021-04-26T12:34:29Z</time>
      </trkpt>
      <trkpt lat="48.51012" lon="3.105">
        <ele>139.7</ele>
        <time>2021-04-26T12:34:33Z</time>
      </trkpt>
      <trkpt lat="48.51009" lon="3.10506">
        <ele>139.6</ele>
        <time>2021-04-26T12:34:37Z</time>
      </trkpt>
      <trkpt lat="48.51006" lon="3.10512">
        <ele>139.5</ele>
        <time>2021-04-26T12:34:41Z</time>
      </trkpt>
      <trkpt lat="48.51004" lon="3.10518">
        <ele>139.3</ele>
        <time>2021-04-26T12:34:45Z</time>
      </trkpt>
      <trkpt lat="48.51" lon="3.10523">
        <ele>139.2</ele>
        <time>2021-04-26T12:34:49Z</time>
      </trkpt>
      <trkpt lat="48.50999" lon="3.10531">
        <ele>139.3</ele>
        <time>2021-04-26T12:34:53Z</time>
      </trkpt>
      <trkpt lat="48.50998" lon="3.1054">
        <ele>139.3</ele>
        <time>2021-04-26T12:34:57Z</time>
      </trkpt>
      <trkpt lat="48.50998" lon="3.10548">
        <ele>139</ele>
        <time>2021-04-26T12:35:01Z</time>
      </trkpt>
      <trkpt lat="48.50997" lon="3.10555">
        <ele>138.9</ele>
        <time>2021-04-26T12:35:05Z</time>
      </trkpt>
      <trkpt lat="48.50995" lon="3.10562">
        <ele>138.7</ele>
        <time>2021-04-26T12:35:09Z</time>
      </trkpt>
      <trkpt lat="48.50993" lon="3.1057">
        <ele>138.3</ele>
        <time>2021-04-26T12:35:13Z</time>
      </trkpt>
      <trkpt lat="48.50991" lon="3.10578">
        <ele>138.2</ele>
        <time>2021-04-26T12:35:17Z</time>
      </trkpt>
      <trkpt lat="48.50989" lon="3.10584">
        <ele>138.1</ele>
        <time>2021-04-26T12:35:21Z</time>
      </trkpt>
      <trkpt lat="48.50987" lon="3.1059">
        <ele>138</ele>
        <time>2021-04-26T12:35:25Z</time>
      </trkpt>
      <trkpt lat="48.50984" lon="3.10597">
        <ele>137.8</ele>
        <time>2021-04-26T12:35:30Z</time>
      </trkpt>
      <trkpt lat="48.50982" lon="3.10604">
        <ele>137.9</ele>
        <time>2021-04-26T12:35:35Z</time>
      </trkpt>
      <trkpt lat="48.50979" lon="3.10609">
        <ele>138.1</ele>
        <time>2021-04-26T12:35:39Z</time>
      </trkpt>
      <trkpt lat="48.50977" lon="3.10615">
        <ele>138.6</ele>
        <time>2021-04-26T12:35:43Z</time>
      </trkpt>
      <trkpt lat="48.50976" lon="3.10623">
        <ele>139.1</ele>
        <time>2021-04-26T12:35:47Z</time>
      </trkpt>
      <trkpt lat="48.50975" lon="3.1063">
        <ele>139.7</ele>
        <time>2021-04-26T12:35:51Z</time>
      </trkpt>
      <trkpt lat="48.50973" lon="3.10637">
        <ele>141</ele>
        <time>2021-04-26T12:35:56Z</time>
      </trkpt>
      <trkpt lat="48.50971" lon="3.10645">
        <ele>142.1</ele>
        <time>2021-04-26T12:36:00Z</time>
      </trkpt>
      <trkpt lat="48.50969" lon="3.10652">
        <ele>142.8</ele>
        <time>2021-04-26T12:36:04Z</time>
      </trkpt>
      <trkpt lat="48.50967" lon="3.1066">
        <ele>143</ele>
        <time>2021-04-26T12:36:08Z</time>
      </trkpt>
      <trkpt lat="48.50964" lon="3.10667">
        <ele>143.2</ele>
        <time>2021-04-26T12:36:13Z</time>
      </trkpt>
      <trkpt lat="48.50961" lon="3.10674">
        <ele>143</ele>
        <time>2021-04-26T12:36:17Z</time>
      </trkpt>
      <trkpt lat="48.50958" lon="3.10681">
        <ele>142.7</ele>
        <time>2021-04-26T12:36:21Z</time>
      </trkpt>
      <trkpt lat="48.50954" lon="3.10688">
        <ele>142</ele>
        <time>2021-04-26T12:36:25Z</time>
      </trkpt>
      <trkpt lat="48.5095" lon="3.10695">
        <ele>141</ele>
        <time>2021-04-26T12:36:29Z</time>
      </trkpt>
      <trkpt lat="48.50947" lon="3.10703">
        <ele>140</ele>
        <time>2021-04-26T12:36:33Z</time>
      </trkpt>
      <trkpt lat="48.50943" lon="3.1071">
        <ele>138.9</ele>
        <time>2021-04-26T12:36:37Z</time>
      </trkpt>
      <trkpt lat="48.50939" lon="3.10715">
        <ele>137.6</ele>
        <time>2021-04-26T12:36:41Z</time>
      </trkpt>
      <trkpt lat="48.50935" lon="3.10721">
        <ele>136.3</ele>
        <time>2021-04-26T12:36:45Z</time>
      </trkpt>
      <trkpt lat="48.50931" lon="3.10726">
        <ele>135.3</ele>
        <time>2021-04-26T12:36:49Z</time>
      </trkpt>
      <trkpt lat="48.50927" lon="3.10732">
        <ele>134.5</ele>
        <time>2021-04-26T12:36:53Z</time>
      </trkpt>
      <trkpt lat="48.50923" lon="3.10737">
        <ele>133.9</ele>
        <time>2021-04-26T12:36:57Z</time>
      </trkpt>
      <trkpt lat="48.50919" lon="3.10742">
        <ele>133.5</ele>
        <time>2021-04-26T12:37:01Z</time>
      </trkpt>
      <trkpt lat="48.50915" lon="3.10749">
        <ele>133.3</ele>
        <time>2021-04-26T12:37:05Z</time>
      </trkpt>
      <trkpt lat="48.50912" lon="3.10756">
        <ele>133.1</ele>
        <time>2021-04-26T12:37:09Z</time>
      </trkpt>
      <trkpt lat="48.50909" lon="3.10761">
        <ele>132.9</ele>
        <time>2021-04-26T12:37:13Z</time>
      </trkpt>
      <trkpt lat="48.50905" lon="3.10767">
        <ele>132.5</ele>
        <time>2021-04-26T12:37:17Z</time>
      </trkpt>
      <trkpt lat="48.50901" lon="3.10772">
        <ele>132.1</ele>
        <time>2021-04-26T12:37:21Z</time>
      </trkpt>
      <trkpt lat="48.50897" lon="3.10777">
        <ele>131.5</ele>
        <time>2021-04-26T12:37:25Z</time>
      </trkpt>
      <trkpt lat="48.50894" lon="3.10782">
        <ele>131.1</ele>
        <time>2021-04-26T12:37:29Z</time>
      </trkpt>
      <trkpt lat="48.5089" lon="3.10787">
        <ele>130.6</ele>
        <time>2021-04-26T12:37:33Z</time>
      </trkpt>
      <trkpt lat="48.50887" lon="3.10793">
        <ele>130.5</ele>
        <time>2021-04-26T12:37:37Z</time>
      </trkpt>
      <trkpt lat="48.50883" lon="3.10799">
        <ele>130.7</ele>
        <time>2021-04-26T12:37:42Z</time>
      </trkpt>
      <trkpt lat="48.50879" lon="3.10805">
        <ele>130.5</ele>
        <time>2021-04-26T12:37:46Z</time>
      </trkpt>
      <trkpt lat="48.50876" lon="3.1081">
        <ele>130.4</ele>
        <time>2021-04-26T12:37:50Z</time>
      </trkpt>
      <trkpt lat="48.50872" lon="3.10815">
        <ele>130</ele>
        <time>2021-04-26T12:37:54Z</time>
      </trkpt>
      <trkpt lat="48.50868" lon="3.1082">
        <ele>129.8</ele>
        <time>2021-04-26T12:37:58Z</time>
      </trkpt>
      <trkpt lat="48.50864" lon="3.10826">
        <ele>129.7</ele>
        <time>2021-04-26T12:38:02Z</time>
      </trkpt>
      <trkpt lat="48.50861" lon="3.10831">
        <ele>129.7</ele>
        <time>2021-04-26T12:38:06Z</time>
      </trkpt>
      <trkpt lat="48.50857" lon="3.10837">
        <ele>129.9</ele>
        <time>2021-04-26T12:38:10Z</time>
      </trkpt>
      <trkpt lat="48.50854" lon="3.10842">
        <ele>129.9</ele>
        <time>2021-04-26T12:38:14Z</time>
      </trkpt>
      <trkpt lat="48.5085" lon="3.10847">
        <ele>130</ele>
        <time>2021-04-26T12:38:18Z</time>
      </trkpt>
      <trkpt lat="48.50847" lon="3.10854">
        <ele>130.1</ele>
        <time>2021-04-26T12:38:22Z</time>
      </trkpt>
      <trkpt lat="48.50844" lon="3.1086">
        <ele>130.1</ele>
        <time>2021-04-26T12:38:26Z</time>
      </trkpt>
      <trkpt lat="48.5084" lon="3.10864">
        <ele>130.1</ele>
        <time>2021-04-26T12:38:30Z</time>
      </trkpt>
      <trkpt lat="48.50836" lon="3.10867">
        <ele>130.2</ele>
        <time>2021-04-26T12:38:34Z</time>
      </trkpt>
      <trkpt lat="48.50832" lon="3.10872">
        <ele>130.4</ele>
        <time>2021-04-26T12:38:38Z</time>
      </trkpt>
      <trkpt lat="48.50828" lon="3.10877">
        <ele>130.8</ele>
        <time>2021-04-26T12:38:42Z</time>
      </trkpt>
      <trkpt lat="48.50825" lon="3.10883">
        <ele>130.8</ele>
        <time>2021-04-26T12:38:46Z</time>
      </trkpt>
      <trkpt lat="48.50822" lon="3.10889">
        <ele>131</ele>
        <time>2021-04-26T12:38:50Z</time>
      </trkpt>
      <trkpt lat="48.50817" lon="3.10895">
        <ele>131</ele>
        <time>2021-04-26T12:38:54Z</time>
      </trkpt>
      <trkpt lat="48.50813" lon="3.10901">
        <ele>130.8</ele>
        <time>2021-04-26T12:38:58Z</time>
      </trkpt>
      <trkpt lat="48.50809" lon="3.10906">
        <ele>130.3</ele>
        <time>2021-04-26T12:39:02Z</time>
      </trkpt>
      <trkpt lat="48.50806" lon="3.10911">
        <ele>129.8</ele>
        <time>2021-04-26T12:39:06Z</time>
      </trkpt>
      <trkpt lat="48.50802" lon="3.10917">
        <ele>129.1</ele>
        <time>2021-04-26T12:39:10Z</time>
      </trkpt>
      <trkpt lat="48.50798" lon="3.10923">
        <ele>128.4</ele>
        <time>2021-04-26T12:39:14Z</time>
      </trkpt>
      <trkpt lat="48.50794" lon="3.10928">
        <ele>127.6</ele>
        <time>2021-04-26T12:39:18Z</time>
      </trkpt>
      <trkpt lat="48.50791" lon="3.10933">
        <ele>126.8</ele>
        <time>2021-04-26T12:39:22Z</time>
      </trkpt>
      <trkpt lat="48.50787" lon="3.10939">
        <ele>126.2</ele>
        <time>2021-04-26T12:39:26Z</time>
      </trkpt>
      <trkpt lat="48.50783" lon="3.10944">
        <ele>126.1</ele>
        <time>2021-04-26T12:39:30Z</time>
      </trkpt>
      <trkpt lat="48.50779" lon="3.1095">
        <ele>126.2</ele>
        <time>2021-04-26T12:39:34Z</time>
      </trkpt>
      <trkpt lat="48.50775" lon="3.10956">
        <ele>126.4</ele>
        <time>2021-04-26T12:39:38Z</time>
      </trkpt>
      <trkpt lat="48.50771" lon="3.10962">
        <ele>126.2</ele>
        <time>2021-04-26T12:39:42Z</time>
      </trkpt>
      <trkpt lat="48.50768" lon="3.10967">
        <ele>125.9</ele>
        <time>2021-04-26T12:39:46Z</time>
      </trkpt>
      <trkpt lat="48.50764" lon="3.10973">
        <ele>125.7</ele>
        <time>2021-04-26T12:39:50Z</time>
      </trkpt>
      <trkpt lat="48.5076" lon="3.10979">
        <ele>125.7</ele>
        <time>2021-04-26T12:39:54Z</time>
      </trkpt>
      <trkpt lat="48.50757" lon="3.10984">
        <ele>125.7</ele>
        <time>2021-04-26T12:39:58Z</time>
      </trkpt>
      <trkpt lat="48.50753" lon="3.1099">
        <ele>125.9</ele>
        <time>2021-04-26T12:40:03Z</time>
      </trkpt>
      <trkpt lat="48.5075" lon="3.10996">
        <ele>126.2</ele>
        <time>2021-04-26T12:40:07Z</time>
      </trkpt>
      <trkpt lat="48.50746" lon="3.11">
        <ele>126.7</ele>
        <time>2021-04-26T12:40:11Z</time>
      </trkpt>
      <trkpt lat="48.50742" lon="3.11005">
        <ele>127.2</ele>
        <time>2021-04-26T12:40:15Z</time>
      </trkpt>
      <trkpt lat="48.50738" lon="3.1101">
        <ele>127.7</ele>
        <time>2021-04-26T12:40:19Z</time>
      </trkpt>
      <trkpt lat="48.50734" lon="3.11015">
        <ele>128</ele>
        <time>2021-04-26T12:40:23Z</time>
      </trkpt>
      <trkpt lat="48.50731" lon="3.11019">
        <ele>128.2</ele>
        <time>2021-04-26T12:40:27Z</time>
      </trkpt>
      <trkpt lat="48.50727" lon="3.11025">
        <ele>128.4</ele>
        <time>2021-04-26T12:40:31Z</time>
      </trkpt>
      <trkpt lat="48.50724" lon="3.1103">
        <ele>128.6</ele>
        <time>2021-04-26T12:40:35Z</time>
      </trkpt>
      <trkpt lat="48.5072" lon="3.11037">
        <ele>129</ele>
        <time>2021-04-26T12:40:39Z</time>
      </trkpt>
      <trkpt lat="48.50716" lon="3.11044">
        <ele>129.2</ele>
        <time>2021-04-26T12:40:43Z</time>
      </trkpt>
      <trkpt lat="48.50713" lon="3.1105">
        <ele>129.5</ele>
        <time>2021-04-26T12:40:47Z</time>
      </trkpt>
      <trkpt lat="48.50709" lon="3.11056">
        <ele>129.4</ele>
        <time>2021-04-26T12:40:51Z</time>
      </trkpt>
      <trkpt lat="48.50705" lon="3.11061">
        <ele>129.1</ele>
        <time>2021-04-26T12:40:55Z</time>
      </trkpt>
      <trkpt lat="48.50702" lon="3.11067">
        <ele>128.7</ele>
        <time>2021-04-26T12:40:59Z</time>
      </trkpt>
      <trkpt lat="48.50699" lon="3.11072">
        <ele>128.4</ele>
        <time>2021-04-26T12:41:03Z</time>
      </trkpt>
      <trkpt lat="48.50695" lon="3.11078">
        <ele>128.1</ele>
        <time>2021-04-26T12:41:07Z</time>
      </trkpt>
      <trkpt lat="48.50691" lon="3.11083">
        <ele>127.8</ele>
        <time>2021-04-26T12:41:11Z</time>
      </trkpt>
      <trkpt lat="48.50687" lon="3.11088">
        <ele>127.2</ele>
        <time>2021-04-26T12:41:15Z</time>
      </trkpt>
      <trkpt lat="48.50683" lon="3.11093">
        <ele>126.7</ele>
        <time>2021-04-26T12:41:19Z</time>
      </trkpt>
      <trkpt lat="48.5068" lon="3.11097">
        <ele>126.2</ele>
        <time>2021-04-26T12:41:23Z</time>
      </trkpt>
      <trkpt lat="48.50676" lon="3.11103">
        <ele>125.7</ele>
        <time>2021-04-26T12:41:27Z</time>
      </trkpt>
      <trkpt lat="48.50672" lon="3.11109">
        <ele>125.1</ele>
        <time>2021-04-26T12:41:31Z</time>
      </trkpt>
      <trkpt lat="48.50668" lon="3.11116">
        <ele>124.4</ele>
        <time>2021-04-26T12:41:35Z</time>
      </trkpt>
      <trkpt lat="48.50663" lon="3.11121">
        <ele>123.9</ele>
        <time>2021-04-26T12:41:39Z</time>
      </trkpt>
      <trkpt lat="48.50659" lon="3.11126">
        <ele>123.6</ele>
        <time>2021-04-26T12:41:43Z</time>
      </trkpt>
      <trkpt lat="48.50656" lon="3.11133">
        <ele>123.5</ele>
        <time>2021-04-26T12:41:50Z</time>
      </trkpt>
      <trkpt lat="48.50652" lon="3.11138">
        <ele>123.5</ele>
        <time>2021-04-26T12:41:55Z</time>
      </trkpt>
      <trkpt lat="48.50648" lon="3.11142">
        <ele>123.5</ele>
        <time>2021-04-26T12:41:59Z</time>
      </trkpt>
      <trkpt lat="48.50644" lon="3.11147">
        <ele>123.5</ele>
        <time>2021-04-26T12:42:04Z</time>
      </trkpt>
      <trkpt lat="48.50641" lon="3.11152">
        <ele>123.8</ele>
        <time>2021-04-26T12:42:08Z</time>
      </trkpt>
      <trkpt lat="48.50637" lon="3.11158">
        <ele>124.2</ele>
        <time>2021-04-26T12:42:12Z</time>
      </trkpt>
      <trkpt lat="48.50634" lon="3.11164">
        <ele>124.7</ele>
        <time>2021-04-26T12:42:16Z</time>
      </trkpt>
      <trkpt lat="48.50631" lon="3.1117">
        <ele>125.2</ele>
        <time>2021-04-26T12:42:20Z</time>
      </trkpt>
      <trkpt lat="48.50628" lon="3.11175">
        <ele>125.7</ele>
        <time>2021-04-26T12:42:24Z</time>
      </trkpt>
      <trkpt lat="48.50624" lon="3.11178">
        <ele>126.4</ele>
        <time>2021-04-26T12:42:28Z</time>
      </trkpt>
      <trkpt lat="48.50619" lon="3.11182">
        <ele>127.1</ele>
        <time>2021-04-26T12:42:32Z</time>
      </trkpt>
      <trkpt lat="48.50616" lon="3.11186">
        <ele>127.8</ele>
        <time>2021-04-26T12:42:36Z</time>
      </trkpt>
      <trkpt lat="48.50612" lon="3.11193">
        <ele>128.6</ele>
        <time>2021-04-26T12:42:41Z</time>
      </trkpt>
      <trkpt lat="48.50608" lon="3.11198">
        <ele>129.1</ele>
        <time>2021-04-26T12:42:45Z</time>
      </trkpt>
      <trkpt lat="48.50605" lon="3.11204">
        <ele>129.4</ele>
        <time>2021-04-26T12:42:49Z</time>
      </trkpt>
      <trkpt lat="48.50601" lon="3.11209">
        <ele>129.6</ele>
        <time>2021-04-26T12:42:53Z</time>
      </trkpt>
      <trkpt lat="48.50597" lon="3.11213">
        <ele>129.7</ele>
        <time>2021-04-26T12:42:57Z</time>
      </trkpt>
      <trkpt lat="48.50593" lon="3.11219">
        <ele>129.9</ele>
        <time>2021-04-26T12:43:01Z</time>
      </trkpt>
      <trkpt lat="48.5059" lon="3.11224">
        <ele>129.9</ele>
        <time>2021-04-26T12:43:05Z</time>
      </trkpt>
      <trkpt lat="48.50586" lon="3.11228">
        <ele>130.1</ele>
        <time>2021-04-26T12:43:09Z</time>
      </trkpt>
      <trkpt lat="48.50582" lon="3.11233">
        <ele>130.3</ele>
        <time>2021-04-26T12:43:13Z</time>
      </trkpt>
      <trkpt lat="48.50578" lon="3.11237">
        <ele>130.6</ele>
        <time>2021-04-26T12:43:17Z</time>
      </trkpt>
      <trkpt lat="48.50573" lon="3.11241">
        <ele>131</ele>
        <time>2021-04-26T12:43:22Z</time>
      </trkpt>
      <trkpt lat="48.50569" lon="3.11245">
        <ele>131.9</ele>
        <time>2021-04-26T12:43:28Z</time>
      </trkpt>
      <trkpt lat="48.50566" lon="3.1125">
        <ele>133.2</ele>
        <time>2021-04-26T12:43:33Z</time>
      </trkpt>
      <trkpt lat="48.50563" lon="3.11255">
        <ele>134.7</ele>
        <time>2021-04-26T12:43:38Z</time>
      </trkpt>
      <trkpt lat="48.50558" lon="3.11258">
        <ele>135.8</ele>
        <time>2021-04-26T12:43:42Z</time>
      </trkpt>
      <trkpt lat="48.50554" lon="3.11262">
        <ele>136.9</ele>
        <time>2021-04-26T12:43:46Z</time>
      </trkpt>
      <trkpt lat="48.5055" lon="3.11266">
        <ele>138</ele>
        <time>2021-04-26T12:43:50Z</time>
      </trkpt>
      <trkpt lat="48.50547" lon="3.11272">
        <ele>139.6</ele>
        <time>2021-04-26T12:43:55Z</time>
      </trkpt>
      <trkpt lat="48.50543" lon="3.11276">
        <ele>141.2</ele>
        <time>2021-04-26T12:44:00Z</time>
      </trkpt>
      <trkpt lat="48.50542" lon="3.11285">
        <ele>143.3</ele>
        <time>2021-04-26T12:44:06Z</time>
      </trkpt>
      <trkpt lat="48.50542" lon="3.11293">
        <ele>144.7</ele>
        <time>2021-04-26T12:44:10Z</time>
      </trkpt>
      <trkpt lat="48.50538" lon="3.11299">
        <ele>147</ele>
        <time>2021-04-26T12:44:17Z</time>
      </trkpt>
      <trkpt lat="48.50534" lon="3.11304">
        <ele>148.6</ele>
        <time>2021-04-26T12:44:22Z</time>
      </trkpt>
      <trkpt lat="48.5053" lon="3.1131">
        <ele>150.2</ele>
        <time>2021-04-26T12:44:27Z</time>
      </trkpt>
      <trkpt lat="48.50525" lon="3.11316">
        <ele>151.1</ele>
        <time>2021-04-26T12:44:31Z</time>
      </trkpt>
      <trkpt lat="48.50518" lon="3.1132">
        <ele>151.5</ele>
        <time>2021-04-26T12:44:35Z</time>
      </trkpt>
      <trkpt lat="48.50513" lon="3.11323">
        <ele>152.3</ele>
        <time>2021-04-26T12:44:40Z</time>
      </trkpt>
      <trkpt lat="48.50508" lon="3.11324">
        <ele>153.6</ele>
        <time>2021-04-26T12:44:47Z</time>
      </trkpt>
      <trkpt lat="48.50505" lon="3.1133">
        <ele>155.7</ele>
        <time>2021-04-26T12:44:54Z</time>
      </trkpt>
      <trkpt lat="48.50504" lon="3.11337">
        <ele>157.2</ele>
        <time>2021-04-26T12:44:58Z</time>
      </trkpt>
      <trkpt lat="48.50498" lon="3.11342">
        <ele>158.7</ele>
        <time>2021-04-26T12:45:02Z</time>
      </trkpt>
      <trkpt lat="48.50494" lon="3.11348">
        <ele>159.9</ele>
        <time>2021-04-26T12:45:06Z</time>
      </trkpt>
      <trkpt lat="48.50491" lon="3.11353">
        <ele>160.9</ele>
        <time>2021-04-26T12:45:10Z</time>
      </trkpt>
      <trkpt lat="48.50488" lon="3.11362">
        <ele>161.3</ele>
        <time>2021-04-26T12:45:14Z</time>
      </trkpt>
      <trkpt lat="48.50485" lon="3.11371">
        <ele>161.2</ele>
        <time>2021-04-26T12:45:18Z</time>
      </trkpt>
      <trkpt lat="48.50481" lon="3.11379">
        <ele>160.8</ele>
        <time>2021-04-26T12:45:22Z</time>
      </trkpt>
      <trkpt lat="48.50478" lon="3.11386">
        <ele>160.1</ele>
        <time>2021-04-26T12:45:26Z</time>
      </trkpt>
      <trkpt lat="48.50474" lon="3.11394">
        <ele>159.3</ele>
        <time>2021-04-26T12:45:30Z</time>
      </trkpt>
      <trkpt lat="48.50471" lon="3.11401">
        <ele>158.7</ele>
        <time>2021-04-26T12:45:34Z</time>
      </trkpt>
      <trkpt lat="48.50466" lon="3.11406">
        <ele>158.2</ele>
        <time>2021-04-26T12:45:38Z</time>
      </trkpt>
      <trkpt lat="48.50461" lon="3.1141">
        <ele>157.5</ele>
        <time>2021-04-26T12:45:42Z</time>
      </trkpt>
      <trkpt lat="48.50456" lon="3.11413">
        <ele>156.8</ele>
        <time>2021-04-26T12:45:46Z</time>
      </trkpt>
      <trkpt lat="48.50451" lon="3.11415">
        <ele>155.9</ele>
        <time>2021-04-26T12:45:50Z</time>
      </trkpt>
      <trkpt lat="48.50447" lon="3.11419">
        <ele>154.8</ele>
        <time>2021-04-26T12:45:54Z</time>
      </trkpt>
      <trkpt lat="48.50441" lon="3.11422">
        <ele>153.2</ele>
        <time>2021-04-26T12:45:58Z</time>
      </trkpt>
      <trkpt lat="48.50436" lon="3.11424">
        <ele>151.1</ele>
        <time>2021-04-26T12:46:02Z</time>
      </trkpt>
      <trkpt lat="48.50431" lon="3.11426">
        <ele>148.9</ele>
        <time>2021-04-26T12:46:06Z</time>
      </trkpt>
      <trkpt lat="48.50425" lon="3.1143">
        <ele>147.1</ele>
        <time>2021-04-26T12:46:10Z</time>
      </trkpt>
      <trkpt lat="48.50419" lon="3.11434">
        <ele>145.3</ele>
        <time>2021-04-26T12:46:14Z</time>
      </trkpt>
      <trkpt lat="48.50414" lon="3.11436">
        <ele>143.5</ele>
        <time>2021-04-26T12:46:18Z</time>
      </trkpt>
      <trkpt lat="48.50409" lon="3.11438">
        <ele>141.8</ele>
        <time>2021-04-26T12:46:22Z</time>
      </trkpt>
      <trkpt lat="48.50405" lon="3.11441">
        <ele>140.3</ele>
        <time>2021-04-26T12:46:26Z</time>
      </trkpt>
      <trkpt lat="48.50399" lon="3.11442">
        <ele>139</ele>
        <time>2021-04-26T12:46:30Z</time>
      </trkpt>
      <trkpt lat="48.50393" lon="3.11445">
        <ele>137.3</ele>
        <time>2021-04-26T12:46:34Z</time>
      </trkpt>
      <trkpt lat="48.50388" lon="3.11448">
        <ele>135.6</ele>
        <time>2021-04-26T12:46:38Z</time>
      </trkpt>
      <trkpt lat="48.50383" lon="3.11451">
        <ele>134.2</ele>
        <time>2021-04-26T12:46:42Z</time>
      </trkpt>
      <trkpt lat="48.50378" lon="3.11454">
        <ele>133</ele>
        <time>2021-04-26T12:46:46Z</time>
      </trkpt>
      <trkpt lat="48.50373" lon="3.11455">
        <ele>132.2</ele>
        <time>2021-04-26T12:46:50Z</time>
      </trkpt>
      <trkpt lat="48.50368" lon="3.11456">
        <ele>132</ele>
        <time>2021-04-26T12:46:54Z</time>
      </trkpt>
      <trkpt lat="48.50363" lon="3.11459">
        <ele>132.2</ele>
        <time>2021-04-26T12:46:58Z</time>
      </trkpt>
      <trkpt lat="48.50358" lon="3.11461">
        <ele>132.2</ele>
        <time>2021-04-26T12:47:02Z</time>
      </trkpt>
      <trkpt lat="48.50353" lon="3.11463">
        <ele>132</ele>
        <time>2021-04-26T12:47:06Z</time>
      </trkpt>
      <trkpt lat="48.50348" lon="3.11464">
        <ele>131.7</ele>
        <time>2021-04-26T12:47:10Z</time>
      </trkpt>
      <trkpt lat="48.50343" lon="3.11465">
        <ele>131.6</ele>
        <time>2021-04-26T12:47:14Z</time>
      </trkpt>
      <trkpt lat="48.50338" lon="3.11467">
        <ele>131.6</ele>
        <time>2021-04-26T12:47:19Z</time>
      </trkpt>
      <trkpt lat="48.50334" lon="3.11468">
        <ele>131.7</ele>
        <time>2021-04-26T12:47:23Z</time>
      </trkpt>
      <trkpt lat="48.50328" lon="3.11469">
        <ele>131.8</ele>
        <time>2021-04-26T12:47:27Z</time>
      </trkpt>
      <trkpt lat="48.50323" lon="3.1147">
        <ele>131.9</ele>
        <time>2021-04-26T12:47:31Z</time>
      </trkpt>
      <trkpt lat="48.50317" lon="3.11471">
        <ele>132.1</ele>
        <time>2021-04-26T12:47:35Z</time>
      </trkpt>
      <trkpt lat="48.50312" lon="3.11472">
        <ele>132.3</ele>
        <time>2021-04-26T12:47:39Z</time>
      </trkpt>
      <trkpt lat="48.50307" lon="3.11473">
        <ele>132.3</ele>
        <time>2021-04-26T12:47:43Z</time>
      </trkpt>
      <trkpt lat="48.50303" lon="3.11473">
        <ele>131.9</ele>
        <time>2021-04-26T12:47:47Z</time>
      </trkpt>
      <trkpt lat="48.50298" lon="3.11473">
        <ele>131.6</ele>
        <time>2021-04-26T12:47:51Z</time>
      </trkpt>
      <trkpt lat="48.50293" lon="3.11475">
        <ele>131.4</ele>
        <time>2021-04-26T12:47:55Z</time>
      </trkpt>
      <trkpt lat="48.50288" lon="3.11475">
        <ele>131.4</ele>
        <time>2021-04-26T12:47:59Z</time>
      </trkpt>
      <trkpt lat="48.50284" lon="3.11477">
        <ele>131.5</ele>
        <time>2021-04-26T12:48:03Z</time>
      </trkpt>
      <trkpt lat="48.50278" lon="3.11478">
        <ele>131.3</ele>
        <time>2021-04-26T12:48:07Z</time>
      </trkpt>
      <trkpt lat="48.50273" lon="3.11479">
        <ele>131</ele>
        <time>2021-04-26T12:48:11Z</time>
      </trkpt>
      <trkpt lat="48.50268" lon="3.1148">
        <ele>130.8</ele>
        <time>2021-04-26T12:48:15Z</time>
      </trkpt>
      <trkpt lat="48.50263" lon="3.11481">
        <ele>130.8</ele>
        <time>2021-04-26T12:48:19Z</time>
      </trkpt>
      <trkpt lat="48.50258" lon="3.11482">
        <ele>131</ele>
        <time>2021-04-26T12:48:24Z</time>
      </trkpt>
      <trkpt lat="48.50253" lon="3.11484">
        <ele>131.4</ele>
        <time>2021-04-26T12:48:28Z</time>
      </trkpt>
      <trkpt lat="48.50249" lon="3.11485">
        <ele>131.7</ele>
        <time>2021-04-26T12:48:32Z</time>
      </trkpt>
      <trkpt lat="48.50244" lon="3.11487">
        <ele>132</ele>
        <time>2021-04-26T12:48:36Z</time>
      </trkpt>
      <trkpt lat="48.50238" lon="3.11488">
        <ele>132</ele>
        <time>2021-04-26T12:48:40Z</time>
      </trkpt>
      <trkpt lat="48.50233" lon="3.1149">
        <ele>132</ele>
        <time>2021-04-26T12:48:44Z</time>
      </trkpt>
      <trkpt lat="48.50228" lon="3.11491">
        <ele>131.7</ele>
        <time>2021-04-26T12:48:48Z</time>
      </trkpt>
      <trkpt lat="48.50223" lon="3.11493">
        <ele>131.4</ele>
        <time>2021-04-26T12:48:52Z</time>
      </trkpt>
      <trkpt lat="48.50218" lon="3.11495">
        <ele>131.1</ele>
        <time>2021-04-26T12:48:56Z</time>
      </trkpt>
      <trkpt lat="48.50213" lon="3.11496">
        <ele>130.8</ele>
        <time>2021-04-26T12:49:00Z</time>
      </trkpt>
      <trkpt lat="48.50209" lon="3.11498">
        <ele>130.6</ele>
        <time>2021-04-26T12:49:04Z</time>
      </trkpt>
      <trkpt lat="48.50204" lon="3.115">
        <ele>130.6</ele>
        <time>2021-04-26T12:49:08Z</time>
      </trkpt>
      <trkpt lat="48.50198" lon="3.11502">
        <ele>130.8</ele>
        <time>2021-04-26T12:49:12Z</time>
      </trkpt>
      <trkpt lat="48.50193" lon="3.11505">
        <ele>131</ele>
        <time>2021-04-26T12:49:16Z</time>
      </trkpt>
      <trkpt lat="48.50189" lon="3.11508">
        <ele>131.2</ele>
        <time>2021-04-26T12:49:20Z</time>
      </trkpt>
      <trkpt lat="48.50185" lon="3.11512">
        <ele>131.6</ele>
        <time>2021-04-26T12:49:24Z</time>
      </trkpt>
      <trkpt lat="48.5018" lon="3.11515">
        <ele>132.2</ele>
        <time>2021-04-26T12:49:28Z</time>
      </trkpt>
      <trkpt lat="48.50176" lon="3.11518">
        <ele>132.3</ele>
        <time>2021-04-26T12:49:32Z</time>
      </trkpt>
      <trkpt lat="48.50172" lon="3.1152">
        <ele>132.1</ele>
        <time>2021-04-26T12:49:36Z</time>
      </trkpt>
      <trkpt lat="48.50167" lon="3.11524">
        <ele>131.9</ele>
        <time>2021-04-26T12:49:40Z</time>
      </trkpt>
      <trkpt lat="48.50163" lon="3.11528">
        <ele>131.7</ele>
        <time>2021-04-26T12:49:44Z</time>
      </trkpt>
      <trkpt lat="48.50158" lon="3.11531">
        <ele>131.5</ele>
        <time>2021-04-26T12:49:48Z</time>
      </trkpt>
      <trkpt lat="48.50154" lon="3.11535">
        <ele>131.4</ele>
        <time>2021-04-26T12:49:52Z</time>
      </trkpt>
      <trkpt lat="48.5015" lon="3.11539">
        <ele>131.4</ele>
        <time>2021-04-26T12:49:56Z</time>
      </trkpt>
      <trkpt lat="48.50145" lon="3.11542">
        <ele>131.3</ele>
        <time>2021-04-26T12:50:00Z</time>
      </trkpt>
      <trkpt lat="48.50141" lon="3.11547">
        <ele>131.1</ele>
        <time>2021-04-26T12:50:04Z</time>
      </trkpt>
      <trkpt lat="48.50137" lon="3.1155">
        <ele>130.8</ele>
        <time>2021-04-26T12:50:08Z</time>
      </trkpt>
      <trkpt lat="48.50133" lon="3.11554">
        <ele>130.5</ele>
        <time>2021-04-26T12:50:12Z</time>
      </trkpt>
      <trkpt lat="48.50128" lon="3.11558">
        <ele>130.4</ele>
        <time>2021-04-26T12:50:16Z</time>
      </trkpt>
      <trkpt lat="48.50124" lon="3.11563">
        <ele>130.4</ele>
        <time>2021-04-26T12:50:20Z</time>
      </trkpt>
      <trkpt lat="48.50119" lon="3.11567">
        <ele>130.4</ele>
        <time>2021-04-26T12:50:24Z</time>
      </trkpt>
      <trkpt lat="48.50115" lon="3.11573">
        <ele>130.4</ele>
        <time>2021-04-26T12:50:28Z</time>
      </trkpt>
      <trkpt lat="48.50112" lon="3.11578">
        <ele>130.3</ele>
        <time>2021-04-26T12:50:32Z</time>
      </trkpt>
      <trkpt lat="48.50108" lon="3.11582">
        <ele>130.2</ele>
        <time>2021-04-26T12:50:36Z</time>
      </trkpt>
      <trkpt lat="48.50104" lon="3.11586">
        <ele>130.1</ele>
        <time>2021-04-26T12:50:40Z</time>
      </trkpt>
      <trkpt lat="48.501" lon="3.1159">
        <ele>129.8</ele>
        <time>2021-04-26T12:50:44Z</time>
      </trkpt>
      <trkpt lat="48.50096" lon="3.11594">
        <ele>129.6</ele>
        <time>2021-04-26T12:50:48Z</time>
      </trkpt>
      <trkpt lat="48.50091" lon="3.11599">
        <ele>129.6</ele>
        <time>2021-04-26T12:50:52Z</time>
      </trkpt>
      <trkpt lat="48.50087" lon="3.11604">
        <ele>129.6</ele>
        <time>2021-04-26T12:50:56Z</time>
      </trkpt>
      <trkpt lat="48.50082" lon="3.11609">
        <ele>129.2</ele>
        <time>2021-04-26T12:51:00Z</time>
      </trkpt>
      <trkpt lat="48.50077" lon="3.11615">
        <ele>128.8</ele>
        <time>2021-04-26T12:51:04Z</time>
      </trkpt>
      <trkpt lat="48.50073" lon="3.11619">
        <ele>128.3</ele>
        <time>2021-04-26T12:51:08Z</time>
      </trkpt>
      <trkpt lat="48.50069" lon="3.11624">
        <ele>127.8</ele>
        <time>2021-04-26T12:51:13Z</time>
      </trkpt>
      <trkpt lat="48.50065" lon="3.11628">
        <ele>127.8</ele>
        <time>2021-04-26T12:51:17Z</time>
      </trkpt>
      <trkpt lat="48.5006" lon="3.11631">
        <ele>127.8</ele>
        <time>2021-04-26T12:51:21Z</time>
      </trkpt>
      <trkpt lat="48.50056" lon="3.11635">
        <ele>128</ele>
        <time>2021-04-26T12:51:25Z</time>
      </trkpt>
      <trkpt lat="48.50051" lon="3.11639">
        <ele>128.5</ele>
        <time>2021-04-26T12:51:30Z</time>
      </trkpt>
      <trkpt lat="48.50047" lon="3.11645">
        <ele>128.9</ele>
        <time>2021-04-26T12:51:35Z</time>
      </trkpt>
      <trkpt lat="48.50042" lon="3.11649">
        <ele>129</ele>
        <time>2021-04-26T12:51:39Z</time>
      </trkpt>
      <trkpt lat="48.50037" lon="3.11654">
        <ele>129.1</ele>
        <time>2021-04-26T12:51:43Z</time>
      </trkpt>
      <trkpt lat="48.50034" lon="3.11658">
        <ele>129.2</ele>
        <time>2021-04-26T12:51:47Z</time>
      </trkpt>
      <trkpt lat="48.5003" lon="3.11663">
        <ele>129.2</ele>
        <time>2021-04-26T12:51:51Z</time>
      </trkpt>
      <trkpt lat="48.50025" lon="3.11668">
        <ele>129.3</ele>
        <time>2021-04-26T12:51:55Z</time>
      </trkpt>
      <trkpt lat="48.50021" lon="3.11672">
        <ele>129.4</ele>
        <time>2021-04-26T12:51:59Z</time>
      </trkpt>
      <trkpt lat="48.50018" lon="3.11676">
        <ele>129.3</ele>
        <time>2021-04-26T12:52:03Z</time>
      </trkpt>
      <trkpt lat="48.50013" lon="3.11681">
        <ele>129.4</ele>
        <time>2021-04-26T12:52:08Z</time>
      </trkpt>
      <trkpt lat="48.50009" lon="3.11684">
        <ele>129.5</ele>
        <time>2021-04-26T12:52:12Z</time>
      </trkpt>
      <trkpt lat="48.50005" lon="3.11688">
        <ele>129.3</ele>
        <time>2021-04-26T12:52:17Z</time>
      </trkpt>
      <trkpt lat="48.50001" lon="3.11694">
        <ele>129.2</ele>
        <time>2021-04-26T12:52:21Z</time>
      </trkpt>
      <trkpt lat="48.49997" lon="3.11698">
        <ele>129.1</ele>
        <time>2021-04-26T12:52:25Z</time>
      </trkpt>
      <trkpt lat="48.49993" lon="3.11701">
        <ele>129</ele>
        <time>2021-04-26T12:52:29Z</time>
      </trkpt>
      <trkpt lat="48.49989" lon="3.11706">
        <ele>128.9</ele>
        <time>2021-04-26T12:52:33Z</time>
      </trkpt>
      <trkpt lat="48.49985" lon="3.1171">
        <ele>128.8</ele>
        <time>2021-04-26T12:52:37Z</time>
      </trkpt>
      <trkpt lat="48.49981" lon="3.11716">
        <ele>128.9</ele>
        <time>2021-04-26T12:52:41Z</time>
      </trkpt>
      <trkpt lat="48.49977" lon="3.11722">
        <ele>129.3</ele>
        <time>2021-04-26T12:52:45Z</time>
      </trkpt>
      <trkpt lat="48.49973" lon="3.11727">
        <ele>129.6</ele>
        <time>2021-04-26T12:52:50Z</time>
      </trkpt>
      <trkpt lat="48.49969" lon="3.1173">
        <ele>129.7</ele>
        <time>2021-04-26T12:52:54Z</time>
      </trkpt>
      <trkpt lat="48.49964" lon="3.11734">
        <ele>129.7</ele>
        <time>2021-04-26T12:52:58Z</time>
      </trkpt>
      <trkpt lat="48.4996" lon="3.11739">
        <ele>129.7</ele>
        <time>2021-04-26T12:53:02Z</time>
      </trkpt>
      <trkpt lat="48.49956" lon="3.11744">
        <ele>129.6</ele>
        <time>2021-04-26T12:53:06Z</time>
      </trkpt>
      <trkpt lat="48.49952" lon="3.1175">
        <ele>129.2</ele>
        <time>2021-04-26T12:53:10Z</time>
      </trkpt>
      <trkpt lat="48.49949" lon="3.11754">
        <ele>128.7</ele>
        <time>2021-04-26T12:53:14Z</time>
      </trkpt>
      <trkpt lat="48.49945" lon="3.11759">
        <ele>128.2</ele>
        <time>2021-04-26T12:53:18Z</time>
      </trkpt>
      <trkpt lat="48.49941" lon="3.11764">
        <ele>127.8</ele>
        <time>2021-04-26T12:53:22Z</time>
      </trkpt>
      <trkpt lat="48.49936" lon="3.11768">
        <ele>127.4</ele>
        <time>2021-04-26T12:53:26Z</time>
      </trkpt>
      <trkpt lat="48.49932" lon="3.11773">
        <ele>127.1</ele>
        <time>2021-04-26T12:53:30Z</time>
      </trkpt>
      <trkpt lat="48.49928" lon="3.11778">
        <ele>127</ele>
        <time>2021-04-26T12:53:35Z</time>
      </trkpt>
      <trkpt lat="48.49923" lon="3.11783">
        <ele>127.1</ele>
        <time>2021-04-26T12:53:39Z</time>
      </trkpt>
      <trkpt lat="48.49919" lon="3.11788">
        <ele>127.2</ele>
        <time>2021-04-26T12:53:44Z</time>
      </trkpt>
      <trkpt lat="48.49915" lon="3.11792">
        <ele>127.1</ele>
        <time>2021-04-26T12:53:48Z</time>
      </trkpt>
      <trkpt lat="48.49911" lon="3.11796">
        <ele>126.6</ele>
        <time>2021-04-26T12:53:52Z</time>
      </trkpt>
      <trkpt lat="48.49906" lon="3.118">
        <ele>126.1</ele>
        <time>2021-04-26T12:53:56Z</time>
      </trkpt>
      <trkpt lat="48.49901" lon="3.11804">
        <ele>125.6</ele>
        <time>2021-04-26T12:54:00Z</time>
      </trkpt>
      <trkpt lat="48.49897" lon="3.1181">
        <ele>124.9</ele>
        <time>2021-04-26T12:54:04Z</time>
      </trkpt>
      <trkpt lat="48.49893" lon="3.11815">
        <ele>124.1</ele>
        <time>2021-04-26T12:54:08Z</time>
      </trkpt>
      <trkpt lat="48.49889" lon="3.1182">
        <ele>123.3</ele>
        <time>2021-04-26T12:54:12Z</time>
      </trkpt>
      <trkpt lat="48.49886" lon="3.11825">
        <ele>122.6</ele>
        <time>2021-04-26T12:54:16Z</time>
      </trkpt>
      <trkpt lat="48.49882" lon="3.11829">
        <ele>121.9</ele>
        <time>2021-04-26T12:54:20Z</time>
      </trkpt>
      <trkpt lat="48.49877" lon="3.11835">
        <ele>121.2</ele>
        <time>2021-04-26T12:54:24Z</time>
      </trkpt>
      <trkpt lat="48.49874" lon="3.1184">
        <ele>120.7</ele>
        <time>2021-04-26T12:54:28Z</time>
      </trkpt>
      <trkpt lat="48.4987" lon="3.11845">
        <ele>120.3</ele>
        <time>2021-04-26T12:54:32Z</time>
      </trkpt>
      <trkpt lat="48.49867" lon="3.11852">
        <ele>120.1</ele>
        <time>2021-04-26T12:54:36Z</time>
      </trkpt>
      <trkpt lat="48.49863" lon="3.11858">
        <ele>119.9</ele>
        <time>2021-04-26T12:54:40Z</time>
      </trkpt>
      <trkpt lat="48.49859" lon="3.11863">
        <ele>119.6</ele>
        <time>2021-04-26T12:54:45Z</time>
      </trkpt>
      <trkpt lat="48.49853" lon="3.11863">
        <ele>119.3</ele>
        <time>2021-04-26T12:54:49Z</time>
      </trkpt>
      <trkpt lat="48.49848" lon="3.11862">
        <ele>119.2</ele>
        <time>2021-04-26T12:54:53Z</time>
      </trkpt>
      <trkpt lat="48.49844" lon="3.11857">
        <ele>119.4</ele>
        <time>2021-04-26T12:54:57Z</time>
      </trkpt>
      <trkpt lat="48.49842" lon="3.1185">
        <ele>120</ele>
        <time>2021-04-26T12:55:02Z</time>
      </trkpt>
      <trkpt lat="48.49841" lon="3.11842">
        <ele>121.5</ele>
        <time>2021-04-26T12:55:07Z</time>
      </trkpt>
      <trkpt lat="48.4984" lon="3.11835">
        <ele>122.7</ele>
        <time>2021-04-26T12:55:12Z</time>
      </trkpt>
      <trkpt lat="48.49838" lon="3.11828">
        <ele>123.4</ele>
        <time>2021-04-26T12:55:17Z</time>
      </trkpt>
      <trkpt lat="48.49835" lon="3.11821">
        <ele>124.1</ele>
        <time>2021-04-26T12:55:22Z</time>
      </trkpt>
      <trkpt lat="48.49832" lon="3.11815">
        <ele>124.8</ele>
        <time>2021-04-26T12:55:26Z</time>
      </trkpt>
      <trkpt lat="48.4983" lon="3.11809">
        <ele>125.4</ele>
        <time>2021-04-26T12:55:30Z</time>
      </trkpt>
      <trkpt lat="48.49828" lon="3.11803">
        <ele>126.1</ele>
        <time>2021-04-26T12:55:34Z</time>
      </trkpt>
      <trkpt lat="48.49826" lon="3.11797">
        <ele>126.7</ele>
        <time>2021-04-26T12:55:38Z</time>
      </trkpt>
      <trkpt lat="48.49824" lon="3.11791">
        <ele>127.1</ele>
        <time>2021-04-26T12:55:42Z</time>
      </trkpt>
      <trkpt lat="48.49821" lon="3.11784">
        <ele>127.3</ele>
        <time>2021-04-26T12:55:46Z</time>
      </trkpt>
      <trkpt lat="48.49818" lon="3.11777">
        <ele>127.5</ele>
        <time>2021-04-26T12:55:50Z</time>
      </trkpt>
      <trkpt lat="48.49815" lon="3.11771">
        <ele>127.8</ele>
        <time>2021-04-26T12:55:54Z</time>
      </trkpt>
      <trkpt lat="48.49812" lon="3.11764">
        <ele>128</ele>
        <time>2021-04-26T12:55:58Z</time>
      </trkpt>
      <trkpt lat="48.49809" lon="3.11757">
        <ele>128</ele>
        <time>2021-04-26T12:56:02Z</time>
      </trkpt>
      <trkpt lat="48.49806" lon="3.1175">
        <ele>127.8</ele>
        <time>2021-04-26T12:56:06Z</time>
      </trkpt>
      <trkpt lat="48.49804" lon="3.11743">
        <ele>127.7</ele>
        <time>2021-04-26T12:56:10Z</time>
      </trkpt>
      <trkpt lat="48.49802" lon="3.11736">
        <ele>127.4</ele>
        <time>2021-04-26T12:56:14Z</time>
      </trkpt>
      <trkpt lat="48.498" lon="3.11729">
        <ele>126.9</ele>
        <time>2021-04-26T12:56:18Z</time>
      </trkpt>
      <trkpt lat="48.49798" lon="3.11723">
        <ele>126.3</ele>
        <time>2021-04-26T12:56:22Z</time>
      </trkpt>
      <trkpt lat="48.49796" lon="3.11716">
        <ele>125.9</ele>
        <time>2021-04-26T12:56:26Z</time>
      </trkpt>
      <trkpt lat="48.49794" lon="3.11709">
        <ele>125.7</ele>
        <time>2021-04-26T12:56:31Z</time>
      </trkpt>
      <trkpt lat="48.49791" lon="3.11702">
        <ele>126.1</ele>
        <time>2021-04-26T12:56:36Z</time>
      </trkpt>
      <trkpt lat="48.49789" lon="3.11696">
        <ele>126.4</ele>
        <time>2021-04-26T12:56:40Z</time>
      </trkpt>
      <trkpt lat="48.49788" lon="3.11687">
        <ele>126.5</ele>
        <time>2021-04-26T12:56:45Z</time>
      </trkpt>
      <trkpt lat="48.49788" lon="3.1168">
        <ele>126.4</ele>
        <time>2021-04-26T12:56:49Z</time>
      </trkpt>
      <trkpt lat="48.49785" lon="3.11674">
        <ele>126.1</ele>
        <time>2021-04-26T12:56:53Z</time>
      </trkpt>
      <trkpt lat="48.49782" lon="3.11668">
        <ele>125.9</ele>
        <time>2021-04-26T12:56:56Z</time>
      </trkpt>
      <trkpt lat="48.49779" lon="3.11662">
        <ele>125.7</ele>
        <time>2021-04-26T12:56:59Z</time>
      </trkpt>
      <trkpt lat="48.49776" lon="3.11655">
        <ele>125.5</ele>
        <time>2021-04-26T12:57:03Z</time>
      </trkpt>
      <trkpt lat="48.49774" lon="3.11649">
        <ele>124.9</ele>
        <time>2021-04-26T12:57:07Z</time>
      </trkpt>
      <trkpt lat="48.49772" lon="3.11642">
        <ele>124.5</ele>
        <time>2021-04-26T12:57:12Z</time>
      </trkpt>
      <trkpt lat="48.4977" lon="3.11635">
        <ele>124.5</ele>
        <time>2021-04-26T12:57:17Z</time>
      </trkpt>
      <trkpt lat="48.4977" lon="3.11628">
        <ele>124.7</ele>
        <time>2021-04-26T12:57:22Z</time>
      </trkpt>
      <trkpt lat="48.49769" lon="3.1162">
        <ele>124.9</ele>
        <time>2021-04-26T12:57:27Z</time>
      </trkpt>
      <trkpt lat="48.49767" lon="3.11613">
        <ele>124.9</ele>
        <time>2021-04-26T12:57:31Z</time>
      </trkpt>
      <trkpt lat="48.49765" lon="3.11605">
        <ele>125</ele>
        <time>2021-04-26T12:57:35Z</time>
      </trkpt>
      <trkpt lat="48.49762" lon="3.11599">
        <ele>125</ele>
        <time>2021-04-26T12:57:38Z</time>
      </trkpt>
      <trkpt lat="48.4976" lon="3.11591">
        <ele>125</ele>
        <time>2021-04-26T12:57:41Z</time>
      </trkpt>
      <trkpt lat="48.49758" lon="3.11585">
        <ele>125</ele>
        <time>2021-04-26T12:57:44Z</time>
      </trkpt>
      <trkpt lat="48.49757" lon="3.11578">
        <ele>125.2</ele>
        <time>2021-04-26T12:57:48Z</time>
      </trkpt>
      <trkpt lat="48.49755" lon="3.11571">
        <ele>125.5</ele>
        <time>2021-04-26T12:57:53Z</time>
      </trkpt>
      <trkpt lat="48.49753" lon="3.11563">
        <ele>125.8</ele>
        <time>2021-04-26T12:57:58Z</time>
      </trkpt>
      <trkpt lat="48.49751" lon="3.11556">
        <ele>126</ele>
        <time>2021-04-26T12:58:02Z</time>
      </trkpt>
      <trkpt lat="48.49749" lon="3.11549">
        <ele>126.2</ele>
        <time>2021-04-26T12:58:06Z</time>
      </trkpt>
      <trkpt lat="48.49746" lon="3.11544">
        <ele>126.4</ele>
        <time>2021-04-26T12:58:09Z</time>
      </trkpt>
      <trkpt lat="48.49742" lon="3.11538">
        <ele>126.5</ele>
        <time>2021-04-26T12:58:13Z</time>
      </trkpt>
      <trkpt lat="48.4974" lon="3.11531">
        <ele>126.6</ele>
        <time>2021-04-26T12:58:18Z</time>
      </trkpt>
      <trkpt lat="48.49738" lon="3.11525">
        <ele>126.6</ele>
        <time>2021-04-26T12:58:22Z</time>
      </trkpt>
      <trkpt lat="48.49737" lon="3.11517">
        <ele>126.5</ele>
        <time>2021-04-26T12:58:27Z</time>
      </trkpt>
      <trkpt lat="48.49735" lon="3.11509">
        <ele>126.4</ele>
        <time>2021-04-26T12:58:32Z</time>
      </trkpt>
      <trkpt lat="48.49734" lon="3.11503">
        <ele>126.8</ele>
        <time>2021-04-26T12:58:37Z</time>
      </trkpt>
      <trkpt lat="48.49733" lon="3.11495">
        <ele>127.1</ele>
        <time>2021-04-26T12:58:41Z</time>
      </trkpt>
      <trkpt lat="48.49733" lon="3.11487">
        <ele>127.6</ele>
        <time>2021-04-26T12:58:45Z</time>
      </trkpt>
      <trkpt lat="48.49732" lon="3.11479">
        <ele>128.2</ele>
        <time>2021-04-26T12:58:49Z</time>
      </trkpt>
      <trkpt lat="48.49732" lon="3.11471">
        <ele>129.2</ele>
        <time>2021-04-26T12:58:54Z</time>
      </trkpt>
      <trkpt lat="48.49733" lon="3.11463">
        <ele>130.2</ele>
        <time>2021-04-26T12:58:59Z</time>
      </trkpt>
      <trkpt lat="48.49733" lon="3.11455">
        <ele>130.9</ele>
        <time>2021-04-26T12:59:03Z</time>
      </trkpt>
      <trkpt lat="48.49733" lon="3.11449">
        <ele>131.2</ele>
        <time>2021-04-26T12:59:06Z</time>
      </trkpt>
      <trkpt lat="48.49732" lon="3.11442">
        <ele>131.5</ele>
        <time>2021-04-26T12:59:09Z</time>
      </trkpt>
      <trkpt lat="48.49732" lon="3.11434">
        <ele>131.7</ele>
        <time>2021-04-26T12:59:13Z</time>
      </trkpt>
      <trkpt lat="48.49731" lon="3.11425">
        <ele>131.8</ele>
        <time>2021-04-26T12:59:17Z</time>
      </trkpt>
      <trkpt lat="48.49731" lon="3.11416">
        <ele>131.8</ele>
        <time>2021-04-26T12:59:21Z</time>
      </trkpt>
      <trkpt lat="48.4973" lon="3.11407">
        <ele>131.6</ele>
        <time>2021-04-26T12:59:25Z</time>
      </trkpt>
      <trkpt lat="48.49729" lon="3.11399">
        <ele>131.4</ele>
        <time>2021-04-26T12:59:29Z</time>
      </trkpt>
      <trkpt lat="48.49728" lon="3.11392">
        <ele>131.2</ele>
        <time>2021-04-26T12:59:34Z</time>
      </trkpt>
      <trkpt lat="48.49726" lon="3.11385">
        <ele>131.2</ele>
        <time>2021-04-26T12:59:39Z</time>
      </trkpt>
      <trkpt lat="48.49725" lon="3.11379">
        <ele>131.5</ele>
        <time>2021-04-26T12:59:46Z</time>
      </trkpt>
      <trkpt lat="48.49724" lon="3.11372">
        <ele>131.6</ele>
        <time>2021-04-26T12:59:51Z</time>
      </trkpt>
      <trkpt lat="48.49722" lon="3.11365">
        <ele>131.9</ele>
        <time>2021-04-26T12:59:57Z</time>
      </trkpt>
      <trkpt lat="48.4972" lon="3.11357">
        <ele>132.4</ele>
        <time>2021-04-26T13:00:02Z</time>
      </trkpt>
      <trkpt lat="48.4972" lon="3.11349">
        <ele>132.9</ele>
        <time>2021-04-26T13:00:09Z</time>
      </trkpt>
      <trkpt lat="48.49719" lon="3.11342">
        <ele>133.4</ele>
        <time>2021-04-26T13:00:13Z</time>
      </trkpt>
      <trkpt lat="48.49718" lon="3.11334">
        <ele>134</ele>
        <time>2021-04-26T13:00:17Z</time>
      </trkpt>
      <trkpt lat="48.49717" lon="3.11326">
        <ele>134.9</ele>
        <time>2021-04-26T13:00:22Z</time>
      </trkpt>
      <trkpt lat="48.49716" lon="3.11319">
        <ele>136</ele>
        <time>2021-04-26T13:00:27Z</time>
      </trkpt>
      <trkpt lat="48.49716" lon="3.11312">
        <ele>137</ele>
        <time>2021-04-26T13:00:32Z</time>
      </trkpt>
      <trkpt lat="48.49716" lon="3.11304">
        <ele>138.3</ele>
        <time>2021-04-26T13:00:38Z</time>
      </trkpt>
      <trkpt lat="48.49717" lon="3.11296">
        <ele>138.7</ele>
        <time>2021-04-26T13:00:42Z</time>
      </trkpt>
      <trkpt lat="48.49718" lon="3.11289">
        <ele>139.1</ele>
        <time>2021-04-26T13:00:45Z</time>
      </trkpt>
      <trkpt lat="48.49718" lon="3.11282">
        <ele>139.5</ele>
        <time>2021-04-26T13:00:48Z</time>
      </trkpt>
      <trkpt lat="48.49719" lon="3.11274">
        <ele>140.2</ele>
        <time>2021-04-26T13:00:53Z</time>
      </trkpt>
      <trkpt lat="48.49721" lon="3.11267">
        <ele>140.8</ele>
        <time>2021-04-26T13:00:58Z</time>
      </trkpt>
      <trkpt lat="48.49723" lon="3.11261">
        <ele>141.4</ele>
        <time>2021-04-26T13:01:03Z</time>
      </trkpt>
      <trkpt lat="48.49724" lon="3.11253">
        <ele>141.6</ele>
        <time>2021-04-26T13:01:07Z</time>
      </trkpt>
      <trkpt lat="48.49727" lon="3.11246">
        <ele>141.8</ele>
        <time>2021-04-26T13:01:11Z</time>
      </trkpt>
      <trkpt lat="48.49728" lon="3.11239">
        <ele>141.9</ele>
        <time>2021-04-26T13:01:15Z</time>
      </trkpt>
      <trkpt lat="48.4973" lon="3.11233">
        <ele>141.9</ele>
        <time>2021-04-26T13:01:19Z</time>
      </trkpt>
      <trkpt lat="48.49733" lon="3.11226">
        <ele>142</ele>
        <time>2021-04-26T13:01:24Z</time>
      </trkpt>
      <trkpt lat="48.49735" lon="3.11219">
        <ele>142.3</ele>
        <time>2021-04-26T13:01:28Z</time>
      </trkpt>
      <trkpt lat="48.49738" lon="3.11212">
        <ele>142.9</ele>
        <time>2021-04-26T13:01:32Z</time>
      </trkpt>
      <trkpt lat="48.49738" lon="3.11204">
        <ele>143.6</ele>
        <time>2021-04-26T13:01:37Z</time>
      </trkpt>
      <trkpt lat="48.4974" lon="3.11196">
        <ele>144.2</ele>
        <time>2021-04-26T13:01:42Z</time>
      </trkpt>
      <trkpt lat="48.49743" lon="3.11191">
        <ele>144.5</ele>
        <time>2021-04-26T13:01:46Z</time>
      </trkpt>
      <trkpt lat="48.49745" lon="3.11183">
        <ele>144.7</ele>
        <time>2021-04-26T13:01:50Z</time>
      </trkpt>
      <trkpt lat="48.49746" lon="3.11176">
        <ele>144.7</ele>
        <time>2021-04-26T13:01:54Z</time>
      </trkpt>
      <trkpt lat="48.49748" lon="3.11168">
        <ele>144.6</ele>
        <time>2021-04-26T13:01:58Z</time>
      </trkpt>
      <trkpt lat="48.49751" lon="3.11162">
        <ele>144.4</ele>
        <time>2021-04-26T13:02:03Z</time>
      </trkpt>
      <trkpt lat="48.49752" lon="3.11156">
        <ele>144.3</ele>
        <time>2021-04-26T13:02:08Z</time>
      </trkpt>
      <trkpt lat="48.49754" lon="3.11149">
        <ele>144.2</ele>
        <time>2021-04-26T13:02:13Z</time>
      </trkpt>
      <trkpt lat="48.49755" lon="3.11142">
        <ele>144.3</ele>
        <time>2021-04-26T13:02:17Z</time>
      </trkpt>
      <trkpt lat="48.49758" lon="3.11135">
        <ele>144.3</ele>
        <time>2021-04-26T13:02:21Z</time>
      </trkpt>
      <trkpt lat="48.4976" lon="3.11127">
        <ele>144.1</ele>
        <time>2021-04-26T13:02:24Z</time>
      </trkpt>
      <trkpt lat="48.49766" lon="3.11116">
        <ele>143.6</ele>
        <time>2021-04-26T13:02:27Z</time>
      </trkpt>
      <trkpt lat="48.49773" lon="3.11108">
        <ele>142.7</ele>
        <time>2021-04-26T13:02:30Z</time>
      </trkpt>
      <trkpt lat="48.49777" lon="3.11105">
        <ele>141.6</ele>
        <time>2021-04-26T13:02:33Z</time>
      </trkpt>
      <trkpt lat="48.49774" lon="3.11099">
        <ele>138</ele>
        <time>2021-04-26T13:02:48Z</time>
      </trkpt>
      <trkpt lat="48.49769" lon="3.11096">
        <ele>137.3</ele>
        <time>2021-04-26T13:02:54Z</time>
      </trkpt>
      <trkpt lat="48.49764" lon="3.11096">
        <ele>137</ele>
        <time>2021-04-26T13:02:57Z</time>
      </trkpt>
      <trkpt lat="48.49759" lon="3.11095">
        <ele>136.7</ele>
        <time>2021-04-26T13:03:00Z</time>
      </trkpt>
      <trkpt lat="48.49754" lon="3.11096">
        <ele>136.4</ele>
        <time>2021-04-26T13:03:03Z</time>
      </trkpt>
      <trkpt lat="48.49748" lon="3.11094">
        <ele>136.1</ele>
        <time>2021-04-26T13:03:06Z</time>
      </trkpt>
      <trkpt lat="48.49743" lon="3.11093">
        <ele>135.8</ele>
        <time>2021-04-26T13:03:09Z</time>
      </trkpt>
      <trkpt lat="48.49739" lon="3.11096">
        <ele>135.6</ele>
        <time>2021-04-26T13:03:13Z</time>
      </trkpt>
      <trkpt lat="48.49735" lon="3.11101">
        <ele>135.6</ele>
        <time>2021-04-26T13:03:19Z</time>
      </trkpt>
      <trkpt lat="48.49731" lon="3.11106">
        <ele>135.9</ele>
        <time>2021-04-26T13:03:23Z</time>
      </trkpt>
      <trkpt lat="48.49727" lon="3.11109">
        <ele>136.2</ele>
        <time>2021-04-26T13:03:27Z</time>
      </trkpt>
      <trkpt lat="48.49722" lon="3.11112">
        <ele>136.5</ele>
        <time>2021-04-26T13:03:31Z</time>
      </trkpt>
      <trkpt lat="48.49718" lon="3.11115">
        <ele>136.8</ele>
        <time>2021-04-26T13:03:35Z</time>
      </trkpt>
      <trkpt lat="48.49713" lon="3.11117">
        <ele>137</ele>
        <time>2021-04-26T13:03:38Z</time>
      </trkpt>
      <trkpt lat="48.49709" lon="3.11121">
        <ele>137.3</ele>
        <time>2021-04-26T13:03:41Z</time>
      </trkpt>
      <trkpt lat="48.49706" lon="3.11127">
        <ele>137.4</ele>
        <time>2021-04-26T13:03:44Z</time>
      </trkpt>
      <trkpt lat="48.49702" lon="3.11133">
        <ele>137.6</ele>
        <time>2021-04-26T13:03:48Z</time>
      </trkpt>
      <trkpt lat="48.497" lon="3.11139">
        <ele>137.5</ele>
        <time>2021-04-26T13:03:51Z</time>
      </trkpt>
      <trkpt lat="48.49695" lon="3.11143">
        <ele>137.1</ele>
        <time>2021-04-26T13:03:55Z</time>
      </trkpt>
      <trkpt lat="48.49691" lon="3.11147">
        <ele>136.5</ele>
        <time>2021-04-26T13:03:59Z</time>
      </trkpt>
      <trkpt lat="48.49687" lon="3.11153">
        <ele>136.1</ele>
        <time>2021-04-26T13:04:02Z</time>
      </trkpt>
      <trkpt lat="48.49684" lon="3.11159">
        <ele>135.5</ele>
        <time>2021-04-26T13:04:06Z</time>
      </trkpt>
      <trkpt lat="48.49682" lon="3.11166">
        <ele>134.8</ele>
        <time>2021-04-26T13:04:10Z</time>
      </trkpt>
      <trkpt lat="48.4968" lon="3.11173">
        <ele>134.3</ele>
        <time>2021-04-26T13:04:13Z</time>
      </trkpt>
      <trkpt lat="48.49678" lon="3.1118">
        <ele>133.4</ele>
        <time>2021-04-26T13:04:17Z</time>
      </trkpt>
      <trkpt lat="48.49675" lon="3.11186">
        <ele>132.3</ele>
        <time>2021-04-26T13:04:22Z</time>
      </trkpt>
      <trkpt lat="48.49672" lon="3.11193">
        <ele>131.1</ele>
        <time>2021-04-26T13:04:27Z</time>
      </trkpt>
      <trkpt lat="48.4967" lon="3.11205">
        <ele>129.3</ele>
        <time>2021-04-26T13:04:30Z</time>
      </trkpt>
      <trkpt lat="48.49668" lon="3.11215">
        <ele>127.5</ele>
        <time>2021-04-26T13:04:33Z</time>
      </trkpt>
      <trkpt lat="48.49666" lon="3.11221">
        <ele>125.2</ele>
        <time>2021-04-26T13:04:38Z</time>
      </trkpt>
      <trkpt lat="48.49661" lon="3.11219">
        <ele>123.4</ele>
        <time>2021-04-26T13:04:44Z</time>
      </trkpt>
      <trkpt lat="48.49655" lon="3.11218">
        <ele>122.6</ele>
        <time>2021-04-26T13:04:48Z</time>
      </trkpt>
      <trkpt lat="48.49651" lon="3.11219">
        <ele>121.6</ele>
        <time>2021-04-26T13:04:53Z</time>
      </trkpt>
      <trkpt lat="48.49645" lon="3.11219">
        <ele>120.5</ele>
        <time>2021-04-26T13:04:58Z</time>
      </trkpt>
      <trkpt lat="48.4964" lon="3.11222">
        <ele>119.6</ele>
        <time>2021-04-26T13:05:03Z</time>
      </trkpt>
      <trkpt lat="48.49635" lon="3.11225">
        <ele>119</ele>
        <time>2021-04-26T13:05:07Z</time>
      </trkpt>
      <trkpt lat="48.49631" lon="3.11228">
        <ele>118.7</ele>
        <time>2021-04-26T13:05:11Z</time>
      </trkpt>
      <trkpt lat="48.49629" lon="3.11234">
        <ele>118.1</ele>
        <time>2021-04-26T13:05:17Z</time>
      </trkpt>
      <trkpt lat="48.4963" lon="3.11241">
        <ele>117.5</ele>
        <time>2021-04-26T13:05:22Z</time>
      </trkpt>
      <trkpt lat="48.49631" lon="3.11249">
        <ele>117</ele>
        <time>2021-04-26T13:05:26Z</time>
      </trkpt>
      <trkpt lat="48.49633" lon="3.11255">
        <ele>116</ele>
        <time>2021-04-26T13:05:31Z</time>
      </trkpt>
      <trkpt lat="48.49636" lon="3.11262">
        <ele>115.1</ele>
        <time>2021-04-26T13:05:35Z</time>
      </trkpt>
      <trkpt lat="48.49637" lon="3.1127">
        <ele>114.2</ele>
        <time>2021-04-26T13:05:38Z</time>
      </trkpt>
      <trkpt lat="48.49637" lon="3.11277">
        <ele>113.6</ele>
        <time>2021-04-26T13:05:42Z</time>
      </trkpt>
      <trkpt lat="48.49632" lon="3.11276">
        <ele>113.3</ele>
        <time>2021-04-26T13:05:56Z</time>
      </trkpt>
      <trkpt lat="48.49627" lon="3.11277">
        <ele>113.4</ele>
        <time>2021-04-26T13:06:02Z</time>
      </trkpt>
      <trkpt lat="48.49622" lon="3.11278">
        <ele>113.3</ele>
        <time>2021-04-26T13:06:06Z</time>
      </trkpt>
      <trkpt lat="48.49618" lon="3.1128">
        <ele>113.1</ele>
        <time>2021-04-26T13:06:11Z</time>
      </trkpt>
      <trkpt lat="48.49614" lon="3.11286">
        <ele>113.1</ele>
        <time>2021-04-26T13:06:17Z</time>
      </trkpt>
      <trkpt lat="48.49612" lon="3.11293">
        <ele>113.1</ele>
        <time>2021-04-26T13:06:22Z</time>
      </trkpt>
      <trkpt lat="48.49607" lon="3.11296">
        <ele>113.1</ele>
        <time>2021-04-26T13:06:26Z</time>
      </trkpt>
      <trkpt lat="48.49603" lon="3.113">
        <ele>113.3</ele>
        <time>2021-04-26T13:06:30Z</time>
      </trkpt>
      <trkpt lat="48.49599" lon="3.11303">
        <ele>114</ele>
        <time>2021-04-26T13:06:37Z</time>
      </trkpt>
      <trkpt lat="48.49597" lon="3.1131">
        <ele>115</ele>
        <time>2021-04-26T13:06:42Z</time>
      </trkpt>
      <trkpt lat="48.49593" lon="3.11314">
        <ele>115.7</ele>
        <time>2021-04-26T13:06:46Z</time>
      </trkpt>
      <trkpt lat="48.4959" lon="3.11321">
        <ele>116.5</ele>
        <time>2021-04-26T13:06:50Z</time>
      </trkpt>
      <trkpt lat="48.49586" lon="3.11327">
        <ele>117.3</ele>
        <time>2021-04-26T13:06:55Z</time>
      </trkpt>
      <trkpt lat="48.49582" lon="3.11333">
        <ele>118</ele>
        <time>2021-04-26T13:07:00Z</time>
      </trkpt>
      <trkpt lat="48.49579" lon="3.11338">
        <ele>118.4</ele>
        <time>2021-04-26T13:07:04Z</time>
      </trkpt>
      <trkpt lat="48.49575" lon="3.11343">
        <ele>119</ele>
        <time>2021-04-26T13:07:09Z</time>
      </trkpt>
      <trkpt lat="48.4957" lon="3.11346">
        <ele>119.3</ele>
        <time>2021-04-26T13:07:12Z</time>
      </trkpt>
      <trkpt lat="48.49565" lon="3.11349">
        <ele>119.3</ele>
        <time>2021-04-26T13:07:15Z</time>
      </trkpt>
      <trkpt lat="48.49561" lon="3.11353">
        <ele>119.3</ele>
        <time>2021-04-26T13:07:19Z</time>
      </trkpt>
      <trkpt lat="48.49557" lon="3.11359">
        <ele>119.3</ele>
        <time>2021-04-26T13:07:25Z</time>
      </trkpt>
      <trkpt lat="48.49553" lon="3.11365">
        <ele>119.1</ele>
        <time>2021-04-26T13:07:29Z</time>
      </trkpt>
      <trkpt lat="48.4955" lon="3.1137">
        <ele>119</ele>
        <time>2021-04-26T13:07:33Z</time>
      </trkpt>
      <trkpt lat="48.49548" lon="3.11377">
        <ele>118.9</ele>
        <time>2021-04-26T13:07:38Z</time>
      </trkpt>
      <trkpt lat="48.49544" lon="3.11381">
        <ele>119.1</ele>
        <time>2021-04-26T13:07:43Z</time>
      </trkpt>
      <trkpt lat="48.49541" lon="3.11388">
        <ele>119.3</ele>
        <time>2021-04-26T13:07:47Z</time>
      </trkpt>
      <trkpt lat="48.49541" lon="3.11396">
        <ele>119.6</ele>
        <time>2021-04-26T13:07:50Z</time>
      </trkpt>
      <trkpt lat="48.49541" lon="3.11405">
        <ele>119.9</ele>
        <time>2021-04-26T13:07:53Z</time>
      </trkpt>
      <trkpt lat="48.4954" lon="3.11414">
        <ele>120.1</ele>
        <time>2021-04-26T13:07:56Z</time>
      </trkpt>
      <trkpt lat="48.49537" lon="3.11421">
        <ele>120.3</ele>
        <time>2021-04-26T13:07:59Z</time>
      </trkpt>
      <trkpt lat="48.49535" lon="3.11428">
        <ele>120.7</ele>
        <time>2021-04-26T13:08:03Z</time>
      </trkpt>
      <trkpt lat="48.49531" lon="3.11432">
        <ele>121.4</ele>
        <time>2021-04-26T13:08:10Z</time>
      </trkpt>
      <trkpt lat="48.49526" lon="3.1143">
        <ele>121.8</ele>
        <time>2021-04-26T13:08:14Z</time>
      </trkpt>
      <trkpt lat="48.49521" lon="3.11426">
        <ele>122.3</ele>
        <time>2021-04-26T13:08:18Z</time>
      </trkpt>
      <trkpt lat="48.49517" lon="3.11422">
        <ele>122.6</ele>
        <time>2021-04-26T13:08:21Z</time>
      </trkpt>
      <trkpt lat="48.49512" lon="3.11418">
        <ele>122.9</ele>
        <time>2021-04-26T13:08:25Z</time>
      </trkpt>
      <trkpt lat="48.49508" lon="3.11416">
        <ele>122.9</ele>
        <time>2021-04-26T13:08:28Z</time>
      </trkpt>
      <trkpt lat="48.49503" lon="3.11414">
        <ele>122.7</ele>
        <time>2021-04-26T13:08:31Z</time>
      </trkpt>
      <trkpt lat="48.49497" lon="3.11412">
        <ele>122.4</ele>
        <time>2021-04-26T13:08:34Z</time>
      </trkpt>
      <trkpt lat="48.4949" lon="3.1141">
        <ele>122</ele>
        <time>2021-04-26T13:08:37Z</time>
      </trkpt>
      <trkpt lat="48.49483" lon="3.11407">
        <ele>121.5</ele>
        <time>2021-04-26T13:08:40Z</time>
      </trkpt>
      <trkpt lat="48.49478" lon="3.11404">
        <ele>120.7</ele>
        <time>2021-04-26T13:08:43Z</time>
      </trkpt>
      <trkpt lat="48.49473" lon="3.11403">
        <ele>119.8</ele>
        <time>2021-04-26T13:08:46Z</time>
      </trkpt>
      <trkpt lat="48.49466" lon="3.11402">
        <ele>119</ele>
        <time>2021-04-26T13:08:49Z</time>
      </trkpt>
      <trkpt lat="48.49461" lon="3.114">
        <ele>118.2</ele>
        <time>2021-04-26T13:08:52Z</time>
      </trkpt>
      <trkpt lat="48.49456" lon="3.11397">
        <ele>117.5</ele>
        <time>2021-04-26T13:08:55Z</time>
      </trkpt>
      <trkpt lat="48.49451" lon="3.11397">
        <ele>116.9</ele>
        <time>2021-04-26T13:08:59Z</time>
      </trkpt>
      <trkpt lat="48.49446" lon="3.11397">
        <ele>116.6</ele>
        <time>2021-04-26T13:09:02Z</time>
      </trkpt>
      <trkpt lat="48.4944" lon="3.11397">
        <ele>116.3</ele>
        <time>2021-04-26T13:09:06Z</time>
      </trkpt>
      <trkpt lat="48.49435" lon="3.11396">
        <ele>116</ele>
        <time>2021-04-26T13:09:09Z</time>
      </trkpt>
      <trkpt lat="48.49429" lon="3.11395">
        <ele>115.6</ele>
        <time>2021-04-26T13:09:12Z</time>
      </trkpt>
      <trkpt lat="48.49423" lon="3.11398">
        <ele>115.1</ele>
        <time>2021-04-26T13:09:16Z</time>
      </trkpt>
      <trkpt lat="48.49419" lon="3.11399">
        <ele>114.5</ele>
        <time>2021-04-26T13:09:20Z</time>
      </trkpt>
      <trkpt lat="48.49414" lon="3.11402">
        <ele>114</ele>
        <time>2021-04-26T13:09:24Z</time>
      </trkpt>
      <trkpt lat="48.4941" lon="3.11405">
        <ele>113.5</ele>
        <time>2021-04-26T13:09:28Z</time>
      </trkpt>
      <trkpt lat="48.49406" lon="3.11408">
        <ele>113</ele>
        <time>2021-04-26T13:09:32Z</time>
      </trkpt>
      <trkpt lat="48.49401" lon="3.11412">
        <ele>112.3</ele>
        <time>2021-04-26T13:09:36Z</time>
      </trkpt>
      <trkpt lat="48.49395" lon="3.11415">
        <ele>111.5</ele>
        <time>2021-04-26T13:09:40Z</time>
      </trkpt>
      <trkpt lat="48.49391" lon="3.11416">
        <ele>111</ele>
        <time>2021-04-26T13:09:43Z</time>
      </trkpt>
      <trkpt lat="48.49385" lon="3.11417">
        <ele>110.6</ele>
        <time>2021-04-26T13:09:47Z</time>
      </trkpt>
      <trkpt lat="48.4938" lon="3.11415">
        <ele>110.3</ele>
        <time>2021-04-26T13:09:50Z</time>
      </trkpt>
      <trkpt lat="48.49375" lon="3.11414">
        <ele>110</ele>
        <time>2021-04-26T13:09:54Z</time>
      </trkpt>
      <trkpt lat="48.4937" lon="3.11414">
        <ele>109.4</ele>
        <time>2021-04-26T13:09:57Z</time>
      </trkpt>
      <trkpt lat="48.49364" lon="3.11415">
        <ele>108</ele>
        <time>2021-04-26T13:10:02Z</time>
      </trkpt>
      <trkpt lat="48.49359" lon="3.11416">
        <ele>106.9</ele>
        <time>2021-04-26T13:10:05Z</time>
      </trkpt>
      <trkpt lat="48.49354" lon="3.11417">
        <ele>105.6</ele>
        <time>2021-04-26T13:10:08Z</time>
      </trkpt>
      <trkpt lat="48.49349" lon="3.11418">
        <ele>103.4</ele>
        <time>2021-04-26T13:10:13Z</time>
      </trkpt>
      <trkpt lat="48.49344" lon="3.1142">
        <ele>101.8</ele>
        <time>2021-04-26T13:10:18Z</time>
      </trkpt>
      <trkpt lat="48.49339" lon="3.11421">
        <ele>101.2</ele>
        <time>2021-04-26T13:10:22Z</time>
      </trkpt>
      <trkpt lat="48.49334" lon="3.11422">
        <ele>100.5</ele>
        <time>2021-04-26T13:10:27Z</time>
      </trkpt>
      <trkpt lat="48.49329" lon="3.11424">
        <ele>100.3</ele>
        <time>2021-04-26T13:10:31Z</time>
      </trkpt>
      <trkpt lat="48.49325" lon="3.11424">
        <ele>100.6</ele>
        <time>2021-04-26T13:10:34Z</time>
      </trkpt>
      <trkpt lat="48.49319" lon="3.11423">
        <ele>100.7</ele>
        <time>2021-04-26T13:10:37Z</time>
      </trkpt>
      <trkpt lat="48.49314" lon="3.11424">
        <ele>101</ele>
        <time>2021-04-26T13:10:40Z</time>
      </trkpt>
      <trkpt lat="48.4931" lon="3.11427">
        <ele>100.8</ele>
        <time>2021-04-26T13:10:44Z</time>
      </trkpt>
      <trkpt lat="48.49306" lon="3.11431">
        <ele>101</ele>
        <time>2021-04-26T13:10:49Z</time>
      </trkpt>
      <trkpt lat="48.49305" lon="3.11438">
        <ele>100.4</ele>
        <time>2021-04-26T13:10:56Z</time>
      </trkpt>
      <trkpt lat="48.49301" lon="3.11442">
        <ele>100.9</ele>
        <time>2021-04-26T13:11:15Z</time>
      </trkpt>
      <trkpt lat="48.49297" lon="3.11441">
        <ele>101</ele>
        <time>2021-04-26T13:11:19Z</time>
      </trkpt>
      <trkpt lat="48.49291" lon="3.11439">
        <ele>101</ele>
        <time>2021-04-26T13:11:22Z</time>
      </trkpt>
      <trkpt lat="48.49285" lon="3.11438">
        <ele>101</ele>
        <time>2021-04-26T13:11:25Z</time>
      </trkpt>
      <trkpt lat="48.49279" lon="3.11436">
        <ele>100.8</ele>
        <time>2021-04-26T13:11:29Z</time>
      </trkpt>
      <trkpt lat="48.49274" lon="3.11433">
        <ele>100.7</ele>
        <time>2021-04-26T13:11:32Z</time>
      </trkpt>
      <trkpt lat="48.4927" lon="3.11429">
        <ele>100.6</ele>
        <time>2021-04-26T13:11:36Z</time>
      </trkpt>
      <trkpt lat="48.49266" lon="3.11425">
        <ele>100</ele>
        <time>2021-04-26T13:11:43Z</time>
      </trkpt>
      <trkpt lat="48.49262" lon="3.1142">
        <ele>99.6</ele>
        <time>2021-04-26T13:11:48Z</time>
      </trkpt>
      <trkpt lat="48.49259" lon="3.11415">
        <ele>99.5</ele>
        <time>2021-04-26T13:11:52Z</time>
      </trkpt>
      <trkpt lat="48.49255" lon="3.11411">
        <ele>99.3</ele>
        <time>2021-04-26T13:11:56Z</time>
      </trkpt>
      <trkpt lat="48.4925" lon="3.11408">
        <ele>99.3</ele>
        <time>2021-04-26T13:12:00Z</time>
      </trkpt>
      <trkpt lat="48.49244" lon="3.11406">
        <ele>99.5</ele>
        <time>2021-04-26T13:12:03Z</time>
      </trkpt>
      <trkpt lat="48.49239" lon="3.11405">
        <ele>99.4</ele>
        <time>2021-04-26T13:12:07Z</time>
      </trkpt>
      <trkpt lat="48.49236" lon="3.114">
        <ele>98.8</ele>
        <time>2021-04-26T13:12:13Z</time>
      </trkpt>
      <trkpt lat="48.49232" lon="3.11397">
        <ele>98.5</ele>
        <time>2021-04-26T13:12:19Z</time>
      </trkpt>
      <trkpt lat="48.49232" lon="3.1139">
        <ele>99.3</ele>
        <time>2021-04-26T13:12:29Z</time>
      </trkpt>
      <trkpt lat="48.49236" lon="3.11385">
        <ele>100</ele>
        <time>2021-04-26T13:12:35Z</time>
      </trkpt>
      <trkpt lat="48.4924" lon="3.11382">
        <ele>100.5</ele>
        <time>2021-04-26T13:12:40Z</time>
      </trkpt>
      <trkpt lat="48.49245" lon="3.11378">
        <ele>100.9</ele>
        <time>2021-04-26T13:12:46Z</time>
      </trkpt>
      <trkpt lat="48.49249" lon="3.11374">
        <ele>101.1</ele>
        <time>2021-04-26T13:12:50Z</time>
      </trkpt>
      <trkpt lat="48.49253" lon="3.11371">
        <ele>101.2</ele>
        <time>2021-04-26T13:12:54Z</time>
      </trkpt>
      <trkpt lat="48.49259" lon="3.11368">
        <ele>101.3</ele>
        <time>2021-04-26T13:12:58Z</time>
      </trkpt>
      <trkpt lat="48.49263" lon="3.11365">
        <ele>101.5</ele>
        <time>2021-04-26T13:13:02Z</time>
      </trkpt>
      <trkpt lat="48.49267" lon="3.11361">
        <ele>102.1</ele>
        <time>2021-04-26T13:13:08Z</time>
      </trkpt>
      <trkpt lat="48.49269" lon="3.11353">
        <ele>102.6</ele>
        <time>2021-04-26T13:13:13Z</time>
      </trkpt>
      <trkpt lat="48.49269" lon="3.11345">
        <ele>103</ele>
        <time>2021-04-26T13:13:17Z</time>
      </trkpt>
      <trkpt lat="48.49269" lon="3.11338">
        <ele>103.5</ele>
        <time>2021-04-26T13:13:22Z</time>
      </trkpt>
      <trkpt lat="48.49267" lon="3.11331">
        <ele>104.5</ele>
        <time>2021-04-26T13:13:30Z</time>
      </trkpt>
      <trkpt lat="48.49267" lon="3.11323">
        <ele>105.4</ele>
        <time>2021-04-26T13:13:36Z</time>
      </trkpt>
      <trkpt lat="48.49268" lon="3.11315">
        <ele>106</ele>
        <time>2021-04-26T13:13:40Z</time>
      </trkpt>
      <trkpt lat="48.49267" lon="3.11307">
        <ele>106.3</ele>
        <time>2021-04-26T13:13:44Z</time>
      </trkpt>
      <trkpt lat="48.49267" lon="3.11299">
        <ele>106.6</ele>
        <time>2021-04-26T13:13:48Z</time>
      </trkpt>
      <trkpt lat="48.49267" lon="3.1129">
        <ele>106.8</ele>
        <time>2021-04-26T13:13:52Z</time>
      </trkpt>
      <trkpt lat="48.49268" lon="3.11282">
        <ele>107.6</ele>
        <time>2021-04-26T13:13:58Z</time>
      </trkpt>
      <trkpt lat="48.49269" lon="3.11276">
        <ele>108.1</ele>
        <time>2021-04-26T13:14:02Z</time>
      </trkpt>
      <trkpt lat="48.49271" lon="3.11269">
        <ele>108.7</ele>
        <time>2021-04-26T13:14:06Z</time>
      </trkpt>
      <trkpt lat="48.49271" lon="3.11261">
        <ele>108.8</ele>
        <time>2021-04-26T13:14:09Z</time>
      </trkpt>
      <trkpt lat="48.49271" lon="3.11255">
        <ele>108.5</ele>
        <time>2021-04-26T13:14:13Z</time>
      </trkpt>
      <trkpt lat="48.49273" lon="3.11247">
        <ele>107.4</ele>
        <time>2021-04-26T13:14:29Z</time>
      </trkpt>
      <trkpt lat="48.49275" lon="3.1124">
        <ele>107.1</ele>
        <time>2021-04-26T13:14:34Z</time>
      </trkpt>
      <trkpt lat="48.49276" lon="3.11233">
        <ele>106.9</ele>
        <time>2021-04-26T13:14:38Z</time>
      </trkpt>
      <trkpt lat="48.49278" lon="3.11227">
        <ele>107</ele>
        <time>2021-04-26T13:14:42Z</time>
      </trkpt>
      <trkpt lat="48.4928" lon="3.1122">
        <ele>107.1</ele>
        <time>2021-04-26T13:14:46Z</time>
      </trkpt>
      <trkpt lat="48.49282" lon="3.11212">
        <ele>107.3</ele>
        <time>2021-04-26T13:14:50Z</time>
      </trkpt>
      <trkpt lat="48.49284" lon="3.11206">
        <ele>107.8</ele>
        <time>2021-04-26T13:14:54Z</time>
      </trkpt>
      <trkpt lat="48.49287" lon="3.112">
        <ele>108.6</ele>
        <time>2021-04-26T13:14:59Z</time>
      </trkpt>
      <trkpt lat="48.49289" lon="3.11193">
        <ele>109.5</ele>
        <time>2021-04-26T13:15:05Z</time>
      </trkpt>
      <trkpt lat="48.49292" lon="3.11187">
        <ele>109.9</ele>
        <time>2021-04-26T13:15:09Z</time>
      </trkpt>
      <trkpt lat="48.49294" lon="3.1118">
        <ele>111</ele>
        <time>2021-04-26T13:15:15Z</time>
      </trkpt>
      <trkpt lat="48.49295" lon="3.11173">
        <ele>115.4</ele>
        <time>2021-04-26T13:15:54Z</time>
      </trkpt>
      <trkpt lat="48.493" lon="3.11169">
        <ele>115.7</ele>
        <time>2021-04-26T13:16:01Z</time>
      </trkpt>
      <trkpt lat="48.49305" lon="3.11166">
        <ele>115.7</ele>
        <time>2021-04-26T13:16:06Z</time>
      </trkpt>
      <trkpt lat="48.49309" lon="3.11162">
        <ele>115.8</ele>
        <time>2021-04-26T13:16:12Z</time>
      </trkpt>
      <trkpt lat="48.49314" lon="3.11159">
        <ele>116</ele>
        <time>2021-04-26T13:16:20Z</time>
      </trkpt>
      <trkpt lat="48.49318" lon="3.11155">
        <ele>116.5</ele>
        <time>2021-04-26T13:16:25Z</time>
      </trkpt>
      <trkpt lat="48.49321" lon="3.1115">
        <ele>116.9</ele>
        <time>2021-04-26T13:16:29Z</time>
      </trkpt>
      <trkpt lat="48.49325" lon="3.11147">
        <ele>117.3</ele>
        <time>2021-04-26T13:16:32Z</time>
      </trkpt>
      <trkpt lat="48.4933" lon="3.11143">
        <ele>117.6</ele>
        <time>2021-04-26T13:16:35Z</time>
      </trkpt>
      <trkpt lat="48.49335" lon="3.11139">
        <ele>118</ele>
        <time>2021-04-26T13:16:39Z</time>
      </trkpt>
      <trkpt lat="48.49339" lon="3.11136">
        <ele>118.2</ele>
        <time>2021-04-26T13:16:42Z</time>
      </trkpt>
      <trkpt lat="48.49342" lon="3.11131">
        <ele>118.4</ele>
        <time>2021-04-26T13:16:45Z</time>
      </trkpt>
      <trkpt lat="48.49346" lon="3.11125">
        <ele>118.8</ele>
        <time>2021-04-26T13:16:49Z</time>
      </trkpt>
      <trkpt lat="48.49349" lon="3.11119">
        <ele>119</ele>
        <time>2021-04-26T13:16:53Z</time>
      </trkpt>
      <trkpt lat="48.49353" lon="3.11113">
        <ele>119.2</ele>
        <time>2021-04-26T13:16:57Z</time>
      </trkpt>
      <trkpt lat="48.49356" lon="3.11108">
        <ele>119.5</ele>
        <time>2021-04-26T13:17:01Z</time>
      </trkpt>
      <trkpt lat="48.4936" lon="3.11104">
        <ele>119.9</ele>
        <time>2021-04-26T13:17:05Z</time>
      </trkpt>
      <trkpt lat="48.49363" lon="3.111">
        <ele>120.2</ele>
        <time>2021-04-26T13:17:09Z</time>
      </trkpt>
      <trkpt lat="48.49368" lon="3.11094">
        <ele>120.6</ele>
        <time>2021-04-26T13:17:15Z</time>
      </trkpt>
      <trkpt lat="48.49372" lon="3.11091">
        <ele>121.1</ele>
        <time>2021-04-26T13:17:20Z</time>
      </trkpt>
      <trkpt lat="48.49376" lon="3.11086">
        <ele>121.6</ele>
        <time>2021-04-26T13:17:25Z</time>
      </trkpt>
      <trkpt lat="48.49379" lon="3.11081">
        <ele>122.3</ele>
        <time>2021-04-26T13:17:30Z</time>
      </trkpt>
      <trkpt lat="48.49384" lon="3.11075">
        <ele>123.9</ele>
        <time>2021-04-26T13:17:39Z</time>
      </trkpt>
      <trkpt lat="48.49388" lon="3.1107">
        <ele>125.1</ele>
        <time>2021-04-26T13:17:45Z</time>
      </trkpt>
      <trkpt lat="48.49391" lon="3.11066">
        <ele>125.9</ele>
        <time>2021-04-26T13:17:50Z</time>
      </trkpt>
      <trkpt lat="48.49395" lon="3.11063">
        <ele>126.8</ele>
        <time>2021-04-26T13:17:55Z</time>
      </trkpt>
      <trkpt lat="48.494" lon="3.11059">
        <ele>128</ele>
        <time>2021-04-26T13:18:01Z</time>
      </trkpt>
      <trkpt lat="48.49404" lon="3.11054">
        <ele>129.2</ele>
        <time>2021-04-26T13:18:06Z</time>
      </trkpt>
      <trkpt lat="48.49406" lon="3.11047">
        <ele>130.2</ele>
        <time>2021-04-26T13:18:10Z</time>
      </trkpt>
      <trkpt lat="48.4941" lon="3.11041">
        <ele>131.1</ele>
        <time>2021-04-26T13:18:14Z</time>
      </trkpt>
      <trkpt lat="48.49413" lon="3.11036">
        <ele>132.1</ele>
        <time>2021-04-26T13:18:18Z</time>
      </trkpt>
      <trkpt lat="48.49417" lon="3.11031">
        <ele>133.3</ele>
        <time>2021-04-26T13:18:23Z</time>
      </trkpt>
      <trkpt lat="48.49421" lon="3.11025">
        <ele>134.4</ele>
        <time>2021-04-26T13:18:28Z</time>
      </trkpt>
      <trkpt lat="48.49424" lon="3.1102">
        <ele>135.6</ele>
        <time>2021-04-26T13:18:33Z</time>
      </trkpt>
      <trkpt lat="48.49427" lon="3.11014">
        <ele>137.1</ele>
        <time>2021-04-26T13:18:38Z</time>
      </trkpt>
      <trkpt lat="48.4943" lon="3.11009">
        <ele>138.4</ele>
        <time>2021-04-26T13:18:43Z</time>
      </trkpt>
      <trkpt lat="48.49432" lon="3.11002">
        <ele>139.2</ele>
        <time>2021-04-26T13:18:47Z</time>
      </trkpt>
      <trkpt lat="48.49433" lon="3.10995">
        <ele>139.9</ele>
        <time>2021-04-26T13:18:51Z</time>
      </trkpt>
      <trkpt lat="48.49435" lon="3.10988">
        <ele>140.3</ele>
        <time>2021-04-26T13:18:54Z</time>
      </trkpt>
      <trkpt lat="48.49437" lon="3.10982">
        <ele>140.7</ele>
        <time>2021-04-26T13:18:57Z</time>
      </trkpt>
      <trkpt lat="48.49439" lon="3.10974">
        <ele>141.3</ele>
        <time>2021-04-26T13:19:01Z</time>
      </trkpt>
      <trkpt lat="48.49442" lon="3.10968">
        <ele>142.1</ele>
        <time>2021-04-26T13:19:05Z</time>
      </trkpt>
      <trkpt lat="48.49444" lon="3.10961">
        <ele>143.1</ele>
        <time>2021-04-26T13:19:10Z</time>
      </trkpt>
      <trkpt lat="48.49446" lon="3.10953">
        <ele>144</ele>
        <time>2021-04-26T13:19:15Z</time>
      </trkpt>
      <trkpt lat="48.49448" lon="3.10945">
        <ele>144.5</ele>
        <time>2021-04-26T13:19:20Z</time>
      </trkpt>
      <trkpt lat="48.49451" lon="3.10938">
        <ele>145</ele>
        <time>2021-04-26T13:19:25Z</time>
      </trkpt>
      <trkpt lat="48.49454" lon="3.10931">
        <ele>145.4</ele>
        <time>2021-04-26T13:19:29Z</time>
      </trkpt>
      <trkpt lat="48.49455" lon="3.10925">
        <ele>145.5</ele>
        <time>2021-04-26T13:19:32Z</time>
      </trkpt>
      <trkpt lat="48.49458" lon="3.10917">
        <ele>145.8</ele>
        <time>2021-04-26T13:19:36Z</time>
      </trkpt>
      <trkpt lat="48.49459" lon="3.10909">
        <ele>146.1</ele>
        <time>2021-04-26T13:19:41Z</time>
      </trkpt>
      <trkpt lat="48.4946" lon="3.10903">
        <ele>145.7</ele>
        <time>2021-04-26T13:19:44Z</time>
      </trkpt>
      <trkpt lat="48.49463" lon="3.10897">
        <ele>145.1</ele>
        <time>2021-04-26T13:19:47Z</time>
      </trkpt>
      <trkpt lat="48.49467" lon="3.10893">
        <ele>144.4</ele>
        <time>2021-04-26T13:19:50Z</time>
      </trkpt>
      <trkpt lat="48.49472" lon="3.10891">
        <ele>143.7</ele>
        <time>2021-04-26T13:19:53Z</time>
      </trkpt>
      <trkpt lat="48.49477" lon="3.10893">
        <ele>143</ele>
        <time>2021-04-26T13:19:56Z</time>
      </trkpt>
      <trkpt lat="48.49482" lon="3.10895">
        <ele>142.4</ele>
        <time>2021-04-26T13:20:00Z</time>
      </trkpt>
      <trkpt lat="48.49487" lon="3.10896">
        <ele>142</ele>
        <time>2021-04-26T13:20:03Z</time>
      </trkpt>
      <trkpt lat="48.49493" lon="3.10897">
        <ele>141.5</ele>
        <time>2021-04-26T13:20:07Z</time>
      </trkpt>
      <trkpt lat="48.49498" lon="3.10899">
        <ele>140.8</ele>
        <time>2021-04-26T13:20:11Z</time>
      </trkpt>
      <trkpt lat="48.49502" lon="3.10898">
        <ele>140.3</ele>
        <time>2021-04-26T13:20:15Z</time>
      </trkpt>
      <trkpt lat="48.49506" lon="3.10894">
        <ele>139.8</ele>
        <time>2021-04-26T13:20:19Z</time>
      </trkpt>
      <trkpt lat="48.4951" lon="3.1089">
        <ele>139.4</ele>
        <time>2021-04-26T13:20:23Z</time>
      </trkpt>
      <trkpt lat="48.49515" lon="3.10888">
        <ele>138.7</ele>
        <time>2021-04-26T13:20:28Z</time>
      </trkpt>
      <trkpt lat="48.49519" lon="3.10885">
        <ele>138</ele>
        <time>2021-04-26T13:20:33Z</time>
      </trkpt>
      <trkpt lat="48.49524" lon="3.10881">
        <ele>137.6</ele>
        <time>2021-04-26T13:20:38Z</time>
      </trkpt>
      <trkpt lat="48.49528" lon="3.10879">
        <ele>137.5</ele>
        <time>2021-04-26T13:20:42Z</time>
      </trkpt>
      <trkpt lat="48.49533" lon="3.10876">
        <ele>137.4</ele>
        <time>2021-04-26T13:20:46Z</time>
      </trkpt>
      <trkpt lat="48.49536" lon="3.1087">
        <ele>137</ele>
        <time>2021-04-26T13:20:51Z</time>
      </trkpt>
      <trkpt lat="48.4954" lon="3.10866">
        <ele>136.4</ele>
        <time>2021-04-26T13:20:56Z</time>
      </trkpt>
      <trkpt lat="48.49544" lon="3.10862">
        <ele>136.2</ele>
        <time>2021-04-26T13:21:00Z</time>
      </trkpt>
      <trkpt lat="48.49549" lon="3.10859">
        <ele>136.3</ele>
        <time>2021-04-26T13:21:05Z</time>
      </trkpt>
      <trkpt lat="48.49553" lon="3.10857">
        <ele>136.4</ele>
        <time>2021-04-26T13:21:09Z</time>
      </trkpt>
      <trkpt lat="48.49557" lon="3.10852">
        <ele>136.4</ele>
        <time>2021-04-26T13:21:13Z</time>
      </trkpt>
      <trkpt lat="48.49561" lon="3.10845">
        <ele>136.4</ele>
        <time>2021-04-26T13:21:17Z</time>
      </trkpt>
      <trkpt lat="48.49565" lon="3.1084">
        <ele>136.4</ele>
        <time>2021-04-26T13:21:21Z</time>
      </trkpt>
      <trkpt lat="48.49569" lon="3.10836">
        <ele>136.5</ele>
        <time>2021-04-26T13:21:25Z</time>
      </trkpt>
      <trkpt lat="48.49573" lon="3.10831">
        <ele>136.5</ele>
        <time>2021-04-26T13:21:29Z</time>
      </trkpt>
      <trkpt lat="48.49575" lon="3.10823">
        <ele>136.1</ele>
        <time>2021-04-26T13:21:33Z</time>
      </trkpt>
      <trkpt lat="48.49577" lon="3.10816">
        <ele>135.7</ele>
        <time>2021-04-26T13:21:37Z</time>
      </trkpt>
      <trkpt lat="48.4958" lon="3.10811">
        <ele>135.4</ele>
        <time>2021-04-26T13:21:41Z</time>
      </trkpt>
      <trkpt lat="48.49584" lon="3.10806">
        <ele>134.9</ele>
        <time>2021-04-26T13:21:45Z</time>
      </trkpt>
      <trkpt lat="48.49588" lon="3.10803">
        <ele>134.6</ele>
        <time>2021-04-26T13:21:49Z</time>
      </trkpt>
      <trkpt lat="48.49592" lon="3.10798">
        <ele>134.1</ele>
        <time>2021-04-26T13:21:53Z</time>
      </trkpt>
      <trkpt lat="48.49595" lon="3.10792">
        <ele>133.8</ele>
        <time>2021-04-26T13:21:58Z</time>
      </trkpt>
      <trkpt lat="48.49598" lon="3.10785">
        <ele>133.8</ele>
        <time>2021-04-26T13:22:03Z</time>
      </trkpt>
      <trkpt lat="48.49603" lon="3.10781">
        <ele>133.5</ele>
        <time>2021-04-26T13:22:07Z</time>
      </trkpt>
      <trkpt lat="48.49607" lon="3.10778">
        <ele>133.1</ele>
        <time>2021-04-26T13:22:11Z</time>
      </trkpt>
      <trkpt lat="48.49612" lon="3.10773">
        <ele>132.6</ele>
        <time>2021-04-26T13:22:16Z</time>
      </trkpt>
      <trkpt lat="48.49616" lon="3.10769">
        <ele>132.2</ele>
        <time>2021-04-26T13:22:20Z</time>
      </trkpt>
      <trkpt lat="48.4962" lon="3.10765">
        <ele>131.8</ele>
        <time>2021-04-26T13:22:23Z</time>
      </trkpt>
      <trkpt lat="48.49624" lon="3.1076">
        <ele>131.3</ele>
        <time>2021-04-26T13:22:26Z</time>
      </trkpt>
      <trkpt lat="48.49629" lon="3.10756">
        <ele>130.8</ele>
        <time>2021-04-26T13:22:29Z</time>
      </trkpt>
      <trkpt lat="48.49633" lon="3.10752">
        <ele>130.2</ele>
        <time>2021-04-26T13:22:32Z</time>
      </trkpt>
      <trkpt lat="48.49638" lon="3.10747">
        <ele>129.3</ele>
        <time>2021-04-26T13:22:36Z</time>
      </trkpt>
      <trkpt lat="48.49642" lon="3.10741">
        <ele>128.4</ele>
        <time>2021-04-26T13:22:41Z</time>
      </trkpt>
      <trkpt lat="48.49645" lon="3.10735">
        <ele>128.2</ele>
        <time>2021-04-26T13:22:46Z</time>
      </trkpt>
      <trkpt lat="48.49647" lon="3.10729">
        <ele>128</ele>
        <time>2021-04-26T13:22:51Z</time>
      </trkpt>
      <trkpt lat="48.4965" lon="3.10722">
        <ele>127.7</ele>
        <time>2021-04-26T13:22:56Z</time>
      </trkpt>
      <trkpt lat="48.49655" lon="3.10716">
        <ele>127.1</ele>
        <time>2021-04-26T13:23:00Z</time>
      </trkpt>
      <trkpt lat="48.49659" lon="3.10711">
        <ele>126.3</ele>
        <time>2021-04-26T13:23:04Z</time>
      </trkpt>
      <trkpt lat="48.49663" lon="3.10706">
        <ele>125.5</ele>
        <time>2021-04-26T13:23:09Z</time>
      </trkpt>
      <trkpt lat="48.49667" lon="3.10702">
        <ele>124.6</ele>
        <time>2021-04-26T13:23:18Z</time>
      </trkpt>
      <trkpt lat="48.4967" lon="3.10697">
        <ele>123.8</ele>
        <time>2021-04-26T13:23:24Z</time>
      </trkpt>
      <trkpt lat="48.49674" lon="3.10692">
        <ele>122.3</ele>
        <time>2021-04-26T13:23:32Z</time>
      </trkpt>
      <trkpt lat="48.49678" lon="3.10686">
        <ele>121.5</ele>
        <time>2021-04-26T13:23:37Z</time>
      </trkpt>
      <trkpt lat="48.49682" lon="3.10681">
        <ele>120.9</ele>
        <time>2021-04-26T13:23:41Z</time>
      </trkpt>
      <trkpt lat="48.49685" lon="3.10676">
        <ele>120.4</ele>
        <time>2021-04-26T13:23:45Z</time>
      </trkpt>
      <trkpt lat="48.4969" lon="3.10672">
        <ele>120</ele>
        <time>2021-04-26T13:23:49Z</time>
      </trkpt>
      <trkpt lat="48.49694" lon="3.10667">
        <ele>119.6</ele>
        <time>2021-04-26T13:23:53Z</time>
      </trkpt>
      <trkpt lat="48.49698" lon="3.10662">
        <ele>119.2</ele>
        <time>2021-04-26T13:23:57Z</time>
      </trkpt>
      <trkpt lat="48.49702" lon="3.10658">
        <ele>118.5</ele>
        <time>2021-04-26T13:24:01Z</time>
      </trkpt>
      <trkpt lat="48.49706" lon="3.10652">
        <ele>117.9</ele>
        <time>2021-04-26T13:24:05Z</time>
      </trkpt>
      <trkpt lat="48.49709" lon="3.10647">
        <ele>117.3</ele>
        <time>2021-04-26T13:24:09Z</time>
      </trkpt>
      <trkpt lat="48.49713" lon="3.10642">
        <ele>116.9</ele>
        <time>2021-04-26T13:24:14Z</time>
      </trkpt>
      <trkpt lat="48.49717" lon="3.10638">
        <ele>117</ele>
        <time>2021-04-26T13:24:19Z</time>
      </trkpt>
      <trkpt lat="48.49721" lon="3.10632">
        <ele>116.9</ele>
        <time>2021-04-26T13:24:23Z</time>
      </trkpt>
      <trkpt lat="48.49725" lon="3.10628">
        <ele>116.9</ele>
        <time>2021-04-26T13:24:27Z</time>
      </trkpt>
      <trkpt lat="48.49729" lon="3.10622">
        <ele>117.3</ele>
        <time>2021-04-26T13:24:32Z</time>
      </trkpt>
      <trkpt lat="48.49733" lon="3.10619">
        <ele>117.8</ele>
        <time>2021-04-26T13:24:36Z</time>
      </trkpt>
      <trkpt lat="48.49737" lon="3.10615">
        <ele>118.2</ele>
        <time>2021-04-26T13:24:40Z</time>
      </trkpt>
      <trkpt lat="48.49741" lon="3.10611">
        <ele>118.6</ele>
        <time>2021-04-26T13:24:44Z</time>
      </trkpt>
      <trkpt lat="48.49745" lon="3.10607">
        <ele>118.8</ele>
        <time>2021-04-26T13:24:48Z</time>
      </trkpt>
      <trkpt lat="48.49749" lon="3.10603">
        <ele>119</ele>
        <time>2021-04-26T13:24:52Z</time>
      </trkpt>
      <trkpt lat="48.49753" lon="3.10598">
        <ele>119.5</ele>
        <time>2021-04-26T13:24:57Z</time>
      </trkpt>
      <trkpt lat="48.49757" lon="3.10594">
        <ele>120.4</ele>
        <time>2021-04-26T13:25:02Z</time>
      </trkpt>
      <trkpt lat="48.49762" lon="3.10591">
        <ele>121.5</ele>
        <time>2021-04-26T13:25:07Z</time>
      </trkpt>
      <trkpt lat="48.49767" lon="3.10589">
        <ele>122</ele>
        <time>2021-04-26T13:25:11Z</time>
      </trkpt>
      <trkpt lat="48.49773" lon="3.10587">
        <ele>122.1</ele>
        <time>2021-04-26T13:25:15Z</time>
      </trkpt>
      <trkpt lat="48.49778" lon="3.10585">
        <ele>122.2</ele>
        <time>2021-04-26T13:25:19Z</time>
      </trkpt>
      <trkpt lat="48.49784" lon="3.10583">
        <ele>122.2</ele>
        <time>2021-04-26T13:25:23Z</time>
      </trkpt>
      <trkpt lat="48.49788" lon="3.1058">
        <ele>122.2</ele>
        <time>2021-04-26T13:25:27Z</time>
      </trkpt>
      <trkpt lat="48.49793" lon="3.10577">
        <ele>122</ele>
        <time>2021-04-26T13:25:31Z</time>
      </trkpt>
      <trkpt lat="48.49798" lon="3.10574">
        <ele>121.5</ele>
        <time>2021-04-26T13:25:35Z</time>
      </trkpt>
      <trkpt lat="48.49803" lon="3.10572">
        <ele>121</ele>
        <time>2021-04-26T13:25:39Z</time>
      </trkpt>
      <trkpt lat="48.49808" lon="3.10569">
        <ele>120.8</ele>
        <time>2021-04-26T13:25:43Z</time>
      </trkpt>
      <trkpt lat="48.49813" lon="3.10567">
        <ele>120.7</ele>
        <time>2021-04-26T13:25:48Z</time>
      </trkpt>
      <trkpt lat="48.49817" lon="3.10565">
        <ele>120.9</ele>
        <time>2021-04-26T13:25:52Z</time>
      </trkpt>
      <trkpt lat="48.49822" lon="3.10563">
        <ele>121</ele>
        <time>2021-04-26T13:25:56Z</time>
      </trkpt>
      <trkpt lat="48.49827" lon="3.10561">
        <ele>120.6</ele>
        <time>2021-04-26T13:26:00Z</time>
      </trkpt>
      <trkpt lat="48.49832" lon="3.1056">
        <ele>120.2</ele>
        <time>2021-04-26T13:26:04Z</time>
      </trkpt>
      <trkpt lat="48.49836" lon="3.10558">
        <ele>119.8</ele>
        <time>2021-04-26T13:26:08Z</time>
      </trkpt>
      <trkpt lat="48.49842" lon="3.10556">
        <ele>119.5</ele>
        <time>2021-04-26T13:26:12Z</time>
      </trkpt>
      <trkpt lat="48.49847" lon="3.10555">
        <ele>119.1</ele>
        <time>2021-04-26T13:26:16Z</time>
      </trkpt>
      <trkpt lat="48.49852" lon="3.10554">
        <ele>118.8</ele>
        <time>2021-04-26T13:26:20Z</time>
      </trkpt>
      <trkpt lat="48.49857" lon="3.10553">
        <ele>118.7</ele>
        <time>2021-04-26T13:26:24Z</time>
      </trkpt>
      <trkpt lat="48.49862" lon="3.10553">
        <ele>119</ele>
        <time>2021-04-26T13:26:28Z</time>
      </trkpt>
      <trkpt lat="48.49867" lon="3.10552">
        <ele>119.6</ele>
        <time>2021-04-26T13:26:32Z</time>
      </trkpt>
      <trkpt lat="48.49872" lon="3.1055">
        <ele>120</ele>
        <time>2021-04-26T13:26:36Z</time>
      </trkpt>
      <trkpt lat="48.49877" lon="3.1055">
        <ele>120.5</ele>
        <time>2021-04-26T13:26:40Z</time>
      </trkpt>
      <trkpt lat="48.49882" lon="3.10549">
        <ele>120.9</ele>
        <time>2021-04-26T13:26:45Z</time>
      </trkpt>
      <trkpt lat="48.49887" lon="3.10548">
        <ele>121.2</ele>
        <time>2021-04-26T13:26:49Z</time>
      </trkpt>
      <trkpt lat="48.49892" lon="3.10547">
        <ele>121.2</ele>
        <time>2021-04-26T13:26:53Z</time>
      </trkpt>
      <trkpt lat="48.49897" lon="3.10547">
        <ele>121.3</ele>
        <time>2021-04-26T13:26:57Z</time>
      </trkpt>
      <trkpt lat="48.49903" lon="3.10547">
        <ele>121.8</ele>
        <time>2021-04-26T13:27:02Z</time>
      </trkpt>
      <trkpt lat="48.49908" lon="3.10547">
        <ele>122.1</ele>
        <time>2021-04-26T13:27:07Z</time>
      </trkpt>
      <trkpt lat="48.49913" lon="3.10546">
        <ele>122.5</ele>
        <time>2021-04-26T13:27:11Z</time>
      </trkpt>
      <trkpt lat="48.49918" lon="3.10544">
        <ele>122.9</ele>
        <time>2021-04-26T13:27:15Z</time>
      </trkpt>
      <trkpt lat="48.49923" lon="3.10542">
        <ele>123.1</ele>
        <time>2021-04-26T13:27:20Z</time>
      </trkpt>
      <trkpt lat="48.49928" lon="3.1054">
        <ele>123.3</ele>
        <time>2021-04-26T13:27:24Z</time>
      </trkpt>
      <trkpt lat="48.49933" lon="3.10539">
        <ele>123.2</ele>
        <time>2021-04-26T13:27:28Z</time>
      </trkpt>
      <trkpt lat="48.49937" lon="3.10537">
        <ele>123</ele>
        <time>2021-04-26T13:27:32Z</time>
      </trkpt>
      <trkpt lat="48.49942" lon="3.10535">
        <ele>122.9</ele>
        <time>2021-04-26T13:27:36Z</time>
      </trkpt>
      <trkpt lat="48.49947" lon="3.10533">
        <ele>122.9</ele>
        <time>2021-04-26T13:27:40Z</time>
      </trkpt>
      <trkpt lat="48.49952" lon="3.1053">
        <ele>122.9</ele>
        <time>2021-04-26T13:27:45Z</time>
      </trkpt>
      <trkpt lat="48.49957" lon="3.10528">
        <ele>122.6</ele>
        <time>2021-04-26T13:27:49Z</time>
      </trkpt>
      <trkpt lat="48.49961" lon="3.10527">
        <ele>122.2</ele>
        <time>2021-04-26T13:27:53Z</time>
      </trkpt>
      <trkpt lat="48.49966" lon="3.10524">
        <ele>121.8</ele>
        <time>2021-04-26T13:27:57Z</time>
      </trkpt>
      <trkpt lat="48.49971" lon="3.1052">
        <ele>121.5</ele>
        <time>2021-04-26T13:28:02Z</time>
      </trkpt>
      <trkpt lat="48.49975" lon="3.10518">
        <ele>121.6</ele>
        <time>2021-04-26T13:28:06Z</time>
      </trkpt>
      <trkpt lat="48.49979" lon="3.10516">
        <ele>122.1</ele>
        <time>2021-04-26T13:28:10Z</time>
      </trkpt>
      <trkpt lat="48.49984" lon="3.10514">
        <ele>122.7</ele>
        <time>2021-04-26T13:28:16Z</time>
      </trkpt>
      <trkpt lat="48.49988" lon="3.10509">
        <ele>123.6</ele>
        <time>2021-04-26T13:28:23Z</time>
      </trkpt>
      <trkpt lat="48.49993" lon="3.10507">
        <ele>124.3</ele>
        <time>2021-04-26T13:28:28Z</time>
      </trkpt>
      <trkpt lat="48.49998" lon="3.10505">
        <ele>124.9</ele>
        <time>2021-04-26T13:28:33Z</time>
      </trkpt>
      <trkpt lat="48.50003" lon="3.10504">
        <ele>125.8</ele>
        <time>2021-04-26T13:28:37Z</time>
      </trkpt>
      <trkpt lat="48.50007" lon="3.10501">
        <ele>126.9</ele>
        <time>2021-04-26T13:28:42Z</time>
      </trkpt>
      <trkpt lat="48.50012" lon="3.10498">
        <ele>128.3</ele>
        <time>2021-04-26T13:28:47Z</time>
      </trkpt>
      <trkpt lat="48.50016" lon="3.10495">
        <ele>129.8</ele>
        <time>2021-04-26T13:28:52Z</time>
      </trkpt>
      <trkpt lat="48.50021" lon="3.10492">
        <ele>131.7</ele>
        <time>2021-04-26T13:28:58Z</time>
      </trkpt>
      <trkpt lat="48.50025" lon="3.10491">
        <ele>133</ele>
        <time>2021-04-26T13:29:02Z</time>
      </trkpt>
      <trkpt lat="48.5003" lon="3.1049">
        <ele>134.3</ele>
        <time>2021-04-26T13:29:06Z</time>
      </trkpt>
      <trkpt lat="48.50035" lon="3.10491">
        <ele>135.8</ele>
        <time>2021-04-26T13:29:11Z</time>
      </trkpt>
      <trkpt lat="48.50041" lon="3.10493">
        <ele>137.6</ele>
        <time>2021-04-26T13:29:18Z</time>
      </trkpt>
      <trkpt lat="48.50046" lon="3.10492">
        <ele>138.7</ele>
        <time>2021-04-26T13:29:23Z</time>
      </trkpt>
      <trkpt lat="48.50051" lon="3.1049">
        <ele>139.8</ele>
        <time>2021-04-26T13:29:27Z</time>
      </trkpt>
      <trkpt lat="48.50056" lon="3.10489">
        <ele>141</ele>
        <time>2021-04-26T13:29:31Z</time>
      </trkpt>
      <trkpt lat="48.5006" lon="3.10487">
        <ele>142.1</ele>
        <time>2021-04-26T13:29:35Z</time>
      </trkpt>
      <trkpt lat="48.50065" lon="3.10485">
        <ele>143.1</ele>
        <time>2021-04-26T13:29:39Z</time>
      </trkpt>
      <trkpt lat="48.5007" lon="3.10482">
        <ele>144.1</ele>
        <time>2021-04-26T13:29:43Z</time>
      </trkpt>
      <trkpt lat="48.50075" lon="3.1048">
        <ele>144.9</ele>
        <time>2021-04-26T13:29:47Z</time>
      </trkpt>
      <trkpt lat="48.5008" lon="3.10476">
        <ele>145</ele>
        <time>2021-04-26T13:29:50Z</time>
      </trkpt>
      <trkpt lat="48.50084" lon="3.10473">
        <ele>144.8</ele>
        <time>2021-04-26T13:29:54Z</time>
      </trkpt>
      <trkpt lat="48.50089" lon="3.10471">
        <ele>144.7</ele>
        <time>2021-04-26T13:30:00Z</time>
      </trkpt>
      <trkpt lat="48.50093" lon="3.10473">
        <ele>144.7</ele>
        <time>2021-04-26T13:30:08Z</time>
      </trkpt>
      <trkpt lat="48.50097" lon="3.10468">
        <ele>144.9</ele>
        <time>2021-04-26T13:30:16Z</time>
      </trkpt>
      <trkpt lat="48.501" lon="3.10462">
        <ele>144.9</ele>
        <time>2021-04-26T13:30:21Z</time>
      </trkpt>
      <trkpt lat="48.50104" lon="3.10458">
        <ele>144.9</ele>
        <time>2021-04-26T13:30:25Z</time>
      </trkpt>
      <trkpt lat="48.50109" lon="3.10454">
        <ele>144.6</ele>
        <time>2021-04-26T13:30:29Z</time>
      </trkpt>
      <trkpt lat="48.50113" lon="3.10452">
        <ele>144.3</ele>
        <time>2021-04-26T13:30:33Z</time>
      </trkpt>
      <trkpt lat="48.50118" lon="3.1045">
        <ele>144.1</ele>
        <time>2021-04-26T13:30:37Z</time>
      </trkpt>
      <trkpt lat="48.50123" lon="3.10448">
        <ele>144</ele>
        <time>2021-04-26T13:30:41Z</time>
      </trkpt>
      <trkpt lat="48.50127" lon="3.10446">
        <ele>144.1</ele>
        <time>2021-04-26T13:30:46Z</time>
      </trkpt>
      <trkpt lat="48.50132" lon="3.10444">
        <ele>144.2</ele>
        <time>2021-04-26T13:30:50Z</time>
      </trkpt>
      <trkpt lat="48.50137" lon="3.10441">
        <ele>144.1</ele>
        <time>2021-04-26T13:30:54Z</time>
      </trkpt>
      <trkpt lat="48.50144" lon="3.10439">
        <ele>143.9</ele>
        <time>2021-04-26T13:30:58Z</time>
      </trkpt>
      <trkpt lat="48.50151" lon="3.10437">
        <ele>143.4</ele>
        <time>2021-04-26T13:31:02Z</time>
      </trkpt>
      <trkpt lat="48.50157" lon="3.10438">
        <ele>142.9</ele>
        <time>2021-04-26T13:31:06Z</time>
      </trkpt>
      <trkpt lat="48.50162" lon="3.10438">
        <ele>142.4</ele>
        <time>2021-04-26T13:31:10Z</time>
      </trkpt>
      <trkpt lat="48.50167" lon="3.10434">
        <ele>141.5</ele>
        <time>2021-04-26T13:31:14Z</time>
      </trkpt>
      <trkpt lat="48.50171" lon="3.10431">
        <ele>140.7</ele>
        <time>2021-04-26T13:31:18Z</time>
      </trkpt>
      <trkpt lat="48.50176" lon="3.10429">
        <ele>139.7</ele>
        <time>2021-04-26T13:31:23Z</time>
      </trkpt>
      <trkpt lat="48.5018" lon="3.10427">
        <ele>138.8</ele>
        <time>2021-04-26T13:31:28Z</time>
      </trkpt>
      <trkpt lat="48.50185" lon="3.10425">
        <ele>138.1</ele>
        <time>2021-04-26T13:31:31Z</time>
      </trkpt>
      <trkpt lat="48.50191" lon="3.10424">
        <ele>137.4</ele>
        <time>2021-04-26T13:31:34Z</time>
      </trkpt>
      <trkpt lat="48.50196" lon="3.10422">
        <ele>136.8</ele>
        <time>2021-04-26T13:31:37Z</time>
      </trkpt>
      <trkpt lat="48.50202" lon="3.1042">
        <ele>135.6</ele>
        <time>2021-04-26T13:31:41Z</time>
      </trkpt>
      <trkpt lat="48.50207" lon="3.10418">
        <ele>134.5</ele>
        <time>2021-04-26T13:31:45Z</time>
      </trkpt>
      <trkpt lat="48.50212" lon="3.10416">
        <ele>133</ele>
        <time>2021-04-26T13:31:50Z</time>
      </trkpt>
      <trkpt lat="48.50217" lon="3.10415">
        <ele>131.6</ele>
        <time>2021-04-26T13:31:54Z</time>
      </trkpt>
      <trkpt lat="48.50222" lon="3.10414">
        <ele>130.2</ele>
        <time>2021-04-26T13:31:59Z</time>
      </trkpt>
      <trkpt lat="48.50226" lon="3.10412">
        <ele>129.4</ele>
        <time>2021-04-26T13:32:04Z</time>
      </trkpt>
      <trkpt lat="48.50231" lon="3.10412">
        <ele>128.9</ele>
        <time>2021-04-26T13:32:10Z</time>
      </trkpt>
      <trkpt lat="48.50236" lon="3.10412">
        <ele>128.7</ele>
        <time>2021-04-26T13:32:16Z</time>
      </trkpt>
      <trkpt lat="48.5024" lon="3.10413">
        <ele>129.2</ele>
        <time>2021-04-26T13:32:20Z</time>
      </trkpt>
      <trkpt lat="48.50245" lon="3.10414">
        <ele>129.8</ele>
        <time>2021-04-26T13:32:25Z</time>
      </trkpt>
      <trkpt lat="48.5025" lon="3.10413">
        <ele>130.2</ele>
        <time>2021-04-26T13:32:30Z</time>
      </trkpt>
      <trkpt lat="48.50255" lon="3.10412">
        <ele>130.4</ele>
        <time>2021-04-26T13:32:36Z</time>
      </trkpt>
      <trkpt lat="48.50261" lon="3.10413">
        <ele>130.6</ele>
        <time>2021-04-26T13:32:41Z</time>
      </trkpt>
      <trkpt lat="48.50266" lon="3.10414">
        <ele>130.7</ele>
        <time>2021-04-26T13:32:50Z</time>
      </trkpt>
      <trkpt lat="48.50271" lon="3.10414">
        <ele>130.6</ele>
        <time>2021-04-26T13:32:56Z</time>
      </trkpt>
      <trkpt lat="48.50276" lon="3.10411">
        <ele>130.7</ele>
        <time>2021-04-26T13:33:02Z</time>
      </trkpt>
      <trkpt lat="48.5028" lon="3.10408">
        <ele>131.5</ele>
        <time>2021-04-26T13:33:08Z</time>
      </trkpt>
      <trkpt lat="48.50285" lon="3.10404">
        <ele>132.7</ele>
        <time>2021-04-26T13:33:15Z</time>
      </trkpt>
      <trkpt lat="48.50289" lon="3.10401">
        <ele>133.3</ele>
        <time>2021-04-26T13:33:19Z</time>
      </trkpt>
      <trkpt lat="48.50293" lon="3.10398">
        <ele>134</ele>
        <time>2021-04-26T13:33:24Z</time>
      </trkpt>
      <trkpt lat="48.50298" lon="3.10396">
        <ele>134.8</ele>
        <time>2021-04-26T13:33:29Z</time>
      </trkpt>
      <trkpt lat="48.50303" lon="3.10397">
        <ele>135.4</ele>
        <time>2021-04-26T13:33:33Z</time>
      </trkpt>
      <trkpt lat="48.50308" lon="3.10394">
        <ele>136.1</ele>
        <time>2021-04-26T13:33:38Z</time>
      </trkpt>
      <trkpt lat="48.50312" lon="3.1039">
        <ele>136.7</ele>
        <time>2021-04-26T13:33:42Z</time>
      </trkpt>
      <trkpt lat="48.50317" lon="3.10386">
        <ele>137.3</ele>
        <time>2021-04-26T13:33:46Z</time>
      </trkpt>
      <trkpt lat="48.50321" lon="3.10382">
        <ele>137.6</ele>
        <time>2021-04-26T13:33:49Z</time>
      </trkpt>
      <trkpt lat="48.50325" lon="3.10377">
        <ele>138.1</ele>
        <time>2021-04-26T13:33:53Z</time>
      </trkpt>
      <trkpt lat="48.50328" lon="3.10371">
        <ele>138.6</ele>
        <time>2021-04-26T13:33:57Z</time>
      </trkpt>
      <trkpt lat="48.50332" lon="3.10368">
        <ele>139</ele>
        <time>2021-04-26T13:34:01Z</time>
      </trkpt>
      <trkpt lat="48.50337" lon="3.10366">
        <ele>139.4</ele>
        <time>2021-04-26T13:34:05Z</time>
      </trkpt>
      <trkpt lat="48.50341" lon="3.10362">
        <ele>139.6</ele>
        <time>2021-04-26T13:34:09Z</time>
      </trkpt>
      <trkpt lat="48.50344" lon="3.10357">
        <ele>139.6</ele>
        <time>2021-04-26T13:34:13Z</time>
      </trkpt>
      <trkpt lat="48.50348" lon="3.10352">
        <ele>139.6</ele>
        <time>2021-04-26T13:34:18Z</time>
      </trkpt>
      <trkpt lat="48.50353" lon="3.10348">
        <ele>139.5</ele>
        <time>2021-04-26T13:34:21Z</time>
      </trkpt>
      <trkpt lat="48.50358" lon="3.10343">
        <ele>139.2</ele>
        <time>2021-04-26T13:34:24Z</time>
      </trkpt>
      <trkpt lat="48.50363" lon="3.10333">
        <ele>137.8</ele>
        <time>2021-04-26T13:34:27Z</time>
      </trkpt>
      <trkpt lat="48.50367" lon="3.10328">
        <ele>136.7</ele>
        <time>2021-04-26T13:34:30Z</time>
      </trkpt>
      <trkpt lat="48.50372" lon="3.10328">
        <ele>134.9</ele>
        <time>2021-04-26T13:34:39Z</time>
      </trkpt>
      <trkpt lat="48.50377" lon="3.10323">
        <ele>134.3</ele>
        <time>2021-04-26T13:34:47Z</time>
      </trkpt>
      <trkpt lat="48.50381" lon="3.10319">
        <ele>134.2</ele>
        <time>2021-04-26T13:34:51Z</time>
      </trkpt>
      <trkpt lat="48.50386" lon="3.10318">
        <ele>134</ele>
        <time>2021-04-26T13:34:56Z</time>
      </trkpt>
      <trkpt lat="48.50391" lon="3.10317">
        <ele>133.9</ele>
        <time>2021-04-26T13:35:02Z</time>
      </trkpt>
      <trkpt lat="48.50395" lon="3.10319">
        <ele>133.8</ele>
        <time>2021-04-26T13:35:08Z</time>
      </trkpt>
      <trkpt lat="48.50401" lon="3.10319">
        <ele>133.8</ele>
        <time>2021-04-26T13:35:14Z</time>
      </trkpt>
      <trkpt lat="48.50406" lon="3.10321">
        <ele>133.7</ele>
        <time>2021-04-26T13:35:18Z</time>
      </trkpt>
      <trkpt lat="48.50411" lon="3.10321">
        <ele>133.5</ele>
        <time>2021-04-26T13:35:22Z</time>
      </trkpt>
      <trkpt lat="48.50416" lon="3.1032">
        <ele>133.2</ele>
        <time>2021-04-26T13:35:26Z</time>
      </trkpt>
      <trkpt lat="48.50421" lon="3.10317">
        <ele>133</ele>
        <time>2021-04-26T13:35:31Z</time>
      </trkpt>
      <trkpt lat="48.50425" lon="3.10314">
        <ele>132.8</ele>
        <time>2021-04-26T13:35:35Z</time>
      </trkpt>
      <trkpt lat="48.50429" lon="3.1031">
        <ele>132.7</ele>
        <time>2021-04-26T13:35:41Z</time>
      </trkpt>
      <trkpt lat="48.50435" lon="3.10312">
        <ele>132.8</ele>
        <time>2021-04-26T13:35:47Z</time>
      </trkpt>
      <trkpt lat="48.5044" lon="3.10314">
        <ele>133.1</ele>
        <time>2021-04-26T13:35:52Z</time>
      </trkpt>
      <trkpt lat="48.50444" lon="3.10317">
        <ele>133.7</ele>
        <time>2021-04-26T13:36:00Z</time>
      </trkpt>
      <trkpt lat="48.5045" lon="3.10316">
        <ele>134.1</ele>
        <time>2021-04-26T13:36:06Z</time>
      </trkpt>
      <trkpt lat="48.50455" lon="3.10315">
        <ele>134.4</ele>
        <time>2021-04-26T13:36:11Z</time>
      </trkpt>
      <trkpt lat="48.50462" lon="3.10314">
        <ele>134.1</ele>
        <time>2021-04-26T13:36:14Z</time>
      </trkpt>
      <trkpt lat="48.50466" lon="3.10315">
        <ele>134</ele>
        <time>2021-04-26T13:36:17Z</time>
      </trkpt>
      <trkpt lat="48.50472" lon="3.10318">
        <ele>133.9</ele>
        <time>2021-04-26T13:36:21Z</time>
      </trkpt>
      <trkpt lat="48.50467" lon="3.10316">
        <ele>133.5</ele>
        <time>2021-04-26T13:36:29Z</time>
      </trkpt>
      <trkpt lat="48.50467" lon="3.10323">
        <ele>132.2</ele>
        <time>2021-04-26T13:36:45Z</time>
      </trkpt>
      <trkpt lat="48.50468" lon="3.1033">
        <ele>131.8</ele>
        <time>2021-04-26T13:36:52Z</time>
      </trkpt>
      <trkpt lat="48.50473" lon="3.10332">
        <ele>132</ele>
        <time>2021-04-26T13:36:58Z</time>
      </trkpt>
      <trkpt lat="48.50477" lon="3.10337">
        <ele>132.9</ele>
        <time>2021-04-26T13:37:05Z</time>
      </trkpt>
      <trkpt lat="48.5048" lon="3.10342">
        <ele>134.2</ele>
        <time>2021-04-26T13:37:10Z</time>
      </trkpt>
      <trkpt lat="48.50483" lon="3.10348">
        <ele>135.4</ele>
        <time>2021-04-26T13:37:15Z</time>
      </trkpt>
      <trkpt lat="48.50487" lon="3.10351">
        <ele>136.4</ele>
        <time>2021-04-26T13:37:21Z</time>
      </trkpt>
      <trkpt lat="48.50491" lon="3.10353">
        <ele>137</ele>
        <time>2021-04-26T13:37:28Z</time>
      </trkpt>
      <trkpt lat="48.50493" lon="3.10359">
        <ele>137.3</ele>
        <time>2021-04-26T13:37:36Z</time>
      </trkpt>
      <trkpt lat="48.50496" lon="3.10365">
        <ele>137.7</ele>
        <time>2021-04-26T13:37:42Z</time>
      </trkpt>
      <trkpt lat="48.50497" lon="3.10373">
        <ele>138.2</ele>
        <time>2021-04-26T13:37:45Z</time>
      </trkpt>
      <trkpt lat="48.50499" lon="3.10379">
        <ele>138.5</ele>
        <time>2021-04-26T13:37:48Z</time>
      </trkpt>
      <trkpt lat="48.50502" lon="3.10384">
        <ele>138.7</ele>
        <time>2021-04-26T13:37:51Z</time>
      </trkpt>
      <trkpt lat="48.50503" lon="3.10392">
        <ele>138.7</ele>
        <time>2021-04-26T13:37:54Z</time>
      </trkpt>
      <trkpt lat="48.50505" lon="3.10399">
        <ele>138.5</ele>
        <time>2021-04-26T13:37:59Z</time>
      </trkpt>
      <trkpt lat="48.50505" lon="3.10406">
        <ele>137.3</ele>
        <time>2021-04-26T13:38:25Z</time>
      </trkpt>
      <trkpt lat="48.50509" lon="3.1041">
        <ele>136.3</ele>
        <time>2021-04-26T13:38:35Z</time>
      </trkpt>
      <trkpt lat="48.50514" lon="3.1041">
        <ele>136.3</ele>
        <time>2021-04-26T13:38:39Z</time>
      </trkpt>
      <trkpt lat="48.50519" lon="3.10412">
        <ele>136.5</ele>
        <time>2021-04-26T13:38:44Z</time>
      </trkpt>
      <trkpt lat="48.50524" lon="3.10414">
        <ele>137.1</ele>
        <time>2021-04-26T13:39:10Z</time>
      </trkpt>
      <trkpt lat="48.50529" lon="3.10411">
        <ele>137.4</ele>
        <time>2021-04-26T13:39:15Z</time>
      </trkpt>
      <trkpt lat="48.50534" lon="3.10409">
        <ele>137.8</ele>
        <time>2021-04-26T13:39:18Z</time>
      </trkpt>
      <trkpt lat="48.50539" lon="3.10407">
        <ele>138.1</ele>
        <time>2021-04-26T13:39:21Z</time>
      </trkpt>
      <trkpt lat="48.50544" lon="3.10404">
        <ele>138.4</ele>
        <time>2021-04-26T13:39:25Z</time>
      </trkpt>
      <trkpt lat="48.50549" lon="3.10399">
        <ele>138.7</ele>
        <time>2021-04-26T13:39:29Z</time>
      </trkpt>
      <trkpt lat="48.50553" lon="3.10397">
        <ele>139.1</ele>
        <time>2021-04-26T13:39:33Z</time>
      </trkpt>
      <trkpt lat="48.50558" lon="3.10393">
        <ele>139.4</ele>
        <time>2021-04-26T13:39:37Z</time>
      </trkpt>
      <trkpt lat="48.50562" lon="3.10389">
        <ele>139.9</ele>
        <time>2021-04-26T13:39:41Z</time>
      </trkpt>
      <trkpt lat="48.50568" lon="3.10389">
        <ele>140.3</ele>
        <time>2021-04-26T13:39:45Z</time>
      </trkpt>
      <trkpt lat="48.50572" lon="3.10389">
        <ele>140.5</ele>
        <time>2021-04-26T13:39:49Z</time>
      </trkpt>
      <trkpt lat="48.50577" lon="3.10388">
        <ele>140.6</ele>
        <time>2021-04-26T13:39:54Z</time>
      </trkpt>
      <trkpt lat="48.50582" lon="3.10388">
        <ele>140.5</ele>
        <time>2021-04-26T13:39:58Z</time>
      </trkpt>
      <trkpt lat="48.50587" lon="3.10389">
        <ele>140.5</ele>
        <time>2021-04-26T13:40:02Z</time>
      </trkpt>
      <trkpt lat="48.50592" lon="3.10391">
        <ele>140.3</ele>
        <time>2021-04-26T13:40:06Z</time>
      </trkpt>
      <trkpt lat="48.50597" lon="3.10394">
        <ele>139.9</ele>
        <time>2021-04-26T13:40:10Z</time>
      </trkpt>
      <trkpt lat="48.50601" lon="3.10395">
        <ele>139.6</ele>
        <time>2021-04-26T13:40:15Z</time>
      </trkpt>
      <trkpt lat="48.50606" lon="3.10399">
        <ele>139.1</ele>
        <time>2021-04-26T13:40:20Z</time>
      </trkpt>
      <trkpt lat="48.5061" lon="3.10403">
        <ele>138.5</ele>
        <time>2021-04-26T13:40:25Z</time>
      </trkpt>
      <trkpt lat="48.50614" lon="3.10402">
        <ele>138.1</ele>
        <time>2021-04-26T13:40:30Z</time>
      </trkpt>
      <trkpt lat="48.50624" lon="3.10404">
        <ele>136.9</ele>
        <time>2021-04-26T13:40:34Z</time>
      </trkpt>
      <trkpt lat="48.50629" lon="3.10405">
        <ele>135.6</ele>
        <time>2021-04-26T13:40:38Z</time>
      </trkpt>
      <trkpt lat="48.50631" lon="3.10412">
        <ele>134.1</ele>
        <time>2021-04-26T13:40:45Z</time>
      </trkpt>
      <trkpt lat="48.50634" lon="3.10419">
        <ele>133.4</ele>
        <time>2021-04-26T13:40:51Z</time>
      </trkpt>
      <trkpt lat="48.50637" lon="3.10424">
        <ele>133.4</ele>
        <time>2021-04-26T13:40:56Z</time>
      </trkpt>
      <trkpt lat="48.50642" lon="3.10427">
        <ele>133.3</ele>
        <time>2021-04-26T13:41:03Z</time>
      </trkpt>
      <trkpt lat="48.50647" lon="3.10426">
        <ele>133.3</ele>
        <time>2021-04-26T13:41:07Z</time>
      </trkpt>
      <trkpt lat="48.50652" lon="3.10423">
        <ele>132.9</ele>
        <time>2021-04-26T13:41:11Z</time>
      </trkpt>
      <trkpt lat="48.50657" lon="3.10418">
        <ele>132.6</ele>
        <time>2021-04-26T13:41:15Z</time>
      </trkpt>
      <trkpt lat="48.50661" lon="3.10414">
        <ele>132.2</ele>
        <time>2021-04-26T13:41:19Z</time>
      </trkpt>
      <trkpt lat="48.50666" lon="3.10411">
        <ele>131.9</ele>
        <time>2021-04-26T13:41:23Z</time>
      </trkpt>
      <trkpt lat="48.5067" lon="3.10408">
        <ele>131.8</ele>
        <time>2021-04-26T13:41:27Z</time>
      </trkpt>
      <trkpt lat="48.50674" lon="3.10405">
        <ele>131.5</ele>
        <time>2021-04-26T13:41:31Z</time>
      </trkpt>
      <trkpt lat="48.50679" lon="3.104">
        <ele>130.9</ele>
        <time>2021-04-26T13:41:35Z</time>
      </trkpt>
      <trkpt lat="48.50681" lon="3.10395">
        <ele>129.9</ele>
        <time>2021-04-26T13:41:40Z</time>
      </trkpt>
      <trkpt lat="48.50686" lon="3.10392">
        <ele>128.9</ele>
        <time>2021-04-26T13:41:45Z</time>
      </trkpt>
      <trkpt lat="48.50691" lon="3.10388">
        <ele>128</ele>
        <time>2021-04-26T13:41:50Z</time>
      </trkpt>
      <trkpt lat="48.50696" lon="3.10386">
        <ele>127.3</ele>
        <time>2021-04-26T13:41:54Z</time>
      </trkpt>
      <trkpt lat="48.507" lon="3.10383">
        <ele>126.8</ele>
        <time>2021-04-26T13:41:58Z</time>
      </trkpt>
      <trkpt lat="48.50705" lon="3.1038">
        <ele>126.2</ele>
        <time>2021-04-26T13:42:03Z</time>
      </trkpt>
      <trkpt lat="48.50709" lon="3.10376">
        <ele>125.6</ele>
        <time>2021-04-26T13:42:08Z</time>
      </trkpt>
      <trkpt lat="48.50714" lon="3.10372">
        <ele>125.4</ele>
        <time>2021-04-26T13:42:12Z</time>
      </trkpt>
      <trkpt lat="48.50719" lon="3.1037">
        <ele>125.1</ele>
        <time>2021-04-26T13:42:17Z</time>
      </trkpt>
      <trkpt lat="48.50723" lon="3.10366">
        <ele>125</ele>
        <time>2021-04-26T13:42:22Z</time>
      </trkpt>
      <trkpt lat="48.50728" lon="3.10363">
        <ele>125.4</ele>
        <time>2021-04-26T13:42:27Z</time>
      </trkpt>
      <trkpt lat="48.50732" lon="3.10359">
        <ele>125.4</ele>
        <time>2021-04-26T13:42:32Z</time>
      </trkpt>
      <trkpt lat="48.50737" lon="3.10356">
        <ele>125.3</ele>
        <time>2021-04-26T13:42:36Z</time>
      </trkpt>
      <trkpt lat="48.50742" lon="3.10355">
        <ele>125.7</ele>
        <time>2021-04-26T13:42:40Z</time>
      </trkpt>
      <trkpt lat="48.50746" lon="3.10354">
        <ele>126.3</ele>
        <time>2021-04-26T13:42:44Z</time>
      </trkpt>
      <trkpt lat="48.50751" lon="3.10353">
        <ele>126.8</ele>
        <time>2021-04-26T13:42:48Z</time>
      </trkpt>
      <trkpt lat="48.50755" lon="3.1035">
        <ele>127.1</ele>
        <time>2021-04-26T13:42:52Z</time>
      </trkpt>
      <trkpt lat="48.5076" lon="3.10347">
        <ele>127.2</ele>
        <time>2021-04-26T13:42:57Z</time>
      </trkpt>
      <trkpt lat="48.50765" lon="3.10343">
        <ele>127.2</ele>
        <time>2021-04-26T13:43:02Z</time>
      </trkpt>
      <trkpt lat="48.5077" lon="3.10339">
        <ele>127.2</ele>
        <time>2021-04-26T13:43:07Z</time>
      </trkpt>
      <trkpt lat="48.50775" lon="3.10337">
        <ele>126.9</ele>
        <time>2021-04-26T13:43:12Z</time>
      </trkpt>
      <trkpt lat="48.5078" lon="3.10335">
        <ele>126.5</ele>
        <time>2021-04-26T13:43:17Z</time>
      </trkpt>
      <trkpt lat="48.50785" lon="3.10332">
        <ele>126.4</ele>
        <time>2021-04-26T13:43:22Z</time>
      </trkpt>
      <trkpt lat="48.50789" lon="3.10328">
        <ele>127.4</ele>
        <time>2021-04-26T13:43:27Z</time>
      </trkpt>
      <trkpt lat="48.50794" lon="3.10327">
        <ele>128.7</ele>
        <time>2021-04-26T13:43:31Z</time>
      </trkpt>
      <trkpt lat="48.50798" lon="3.10322">
        <ele>130.3</ele>
        <time>2021-04-26T13:43:36Z</time>
      </trkpt>
      <trkpt lat="48.50803" lon="3.10317">
        <ele>130.9</ele>
        <time>2021-04-26T13:43:41Z</time>
      </trkpt>
      <trkpt lat="48.50807" lon="3.10313">
        <ele>130.9</ele>
        <time>2021-04-26T13:43:45Z</time>
      </trkpt>
      <trkpt lat="48.50811" lon="3.1031">
        <ele>130.9</ele>
        <time>2021-04-26T13:43:51Z</time>
      </trkpt>
      <trkpt lat="48.50815" lon="3.10305">
        <ele>131.2</ele>
        <time>2021-04-26T13:43:55Z</time>
      </trkpt>
      <trkpt lat="48.50818" lon="3.103">
        <ele>131.3</ele>
        <time>2021-04-26T13:43:59Z</time>
      </trkpt>
      <trkpt lat="48.50822" lon="3.10295">
        <ele>131.2</ele>
        <time>2021-04-26T13:44:03Z</time>
      </trkpt>
      <trkpt lat="48.50826" lon="3.10289">
        <ele>131.1</ele>
        <time>2021-04-26T13:44:08Z</time>
      </trkpt>
      <trkpt lat="48.5083" lon="3.10284">
        <ele>130.8</ele>
        <time>2021-04-26T13:44:13Z</time>
      </trkpt>
      <trkpt lat="48.50833" lon="3.10279">
        <ele>130.7</ele>
        <time>2021-04-26T13:44:17Z</time>
      </trkpt>
      <trkpt lat="48.50837" lon="3.10275">
        <ele>130.7</ele>
        <time>2021-04-26T13:44:21Z</time>
      </trkpt>
      <trkpt lat="48.50841" lon="3.1027">
        <ele>130.9</ele>
        <time>2021-04-26T13:44:26Z</time>
      </trkpt>
      <trkpt lat="48.50844" lon="3.10265">
        <ele>131</ele>
        <time>2021-04-26T13:44:30Z</time>
      </trkpt>
      <trkpt lat="48.50847" lon="3.10259">
        <ele>131.1</ele>
        <time>2021-04-26T13:44:34Z</time>
      </trkpt>
      <trkpt lat="48.50849" lon="3.10253">
        <ele>131.4</ele>
        <time>2021-04-26T13:44:38Z</time>
      </trkpt>
      <trkpt lat="48.50852" lon="3.10247">
        <ele>131.8</ele>
        <time>2021-04-26T13:44:42Z</time>
      </trkpt>
      <trkpt lat="48.50853" lon="3.10238">
        <ele>132.1</ele>
        <time>2021-04-26T13:44:47Z</time>
      </trkpt>
      <trkpt lat="48.50855" lon="3.10231">
        <ele>132.3</ele>
        <time>2021-04-26T13:44:51Z</time>
      </trkpt>
      <trkpt lat="48.50858" lon="3.10224">
        <ele>132.4</ele>
        <time>2021-04-26T13:44:55Z</time>
      </trkpt>
      <trkpt lat="48.5086" lon="3.10217">
        <ele>132.6</ele>
        <time>2021-04-26T13:45:00Z</time>
      </trkpt>
      <trkpt lat="48.50862" lon="3.10211">
        <ele>132.9</ele>
        <time>2021-04-26T13:45:05Z</time>
      </trkpt>
      <trkpt lat="48.50864" lon="3.10204">
        <ele>133.2</ele>
        <time>2021-04-26T13:45:09Z</time>
      </trkpt>
      <trkpt lat="48.50866" lon="3.10197">
        <ele>133.5</ele>
        <time>2021-04-26T13:45:14Z</time>
      </trkpt>
      <trkpt lat="48.50867" lon="3.1019">
        <ele>133</ele>
        <time>2021-04-26T13:45:21Z</time>
      </trkpt>
      <trkpt lat="48.50869" lon="3.10182">
        <ele>132.8</ele>
        <time>2021-04-26T13:45:27Z</time>
      </trkpt>
      <trkpt lat="48.50872" lon="3.10174">
        <ele>132.7</ele>
        <time>2021-04-26T13:45:32Z</time>
      </trkpt>
      <trkpt lat="48.50873" lon="3.10168">
        <ele>132.8</ele>
        <time>2021-04-26T13:45:37Z</time>
      </trkpt>
      <trkpt lat="48.50875" lon="3.1016">
        <ele>133.1</ele>
        <time>2021-04-26T13:45:42Z</time>
      </trkpt>
      <trkpt lat="48.50875" lon="3.10153">
        <ele>133.1</ele>
        <time>2021-04-26T13:45:46Z</time>
      </trkpt>
      <trkpt lat="48.50876" lon="3.10146">
        <ele>132.8</ele>
        <time>2021-04-26T13:45:50Z</time>
      </trkpt>
      <trkpt lat="48.50877" lon="3.10138">
        <ele>132.2</ele>
        <time>2021-04-26T13:45:54Z</time>
      </trkpt>
      <trkpt lat="48.50878" lon="3.10131">
        <ele>131.4</ele>
        <time>2021-04-26T13:45:59Z</time>
      </trkpt>
      <trkpt lat="48.5088" lon="3.10124">
        <ele>130.8</ele>
        <time>2021-04-26T13:46:04Z</time>
      </trkpt>
      <trkpt lat="48.50882" lon="3.10116">
        <ele>130.3</ele>
        <time>2021-04-26T13:46:09Z</time>
      </trkpt>
      <trkpt lat="48.50883" lon="3.10109">
        <ele>129.7</ele>
        <time>2021-04-26T13:46:15Z</time>
      </trkpt>
      <trkpt lat="48.50884" lon="3.10103">
        <ele>129.2</ele>
        <time>2021-04-26T13:46:21Z</time>
      </trkpt>
      <trkpt lat="48.50887" lon="3.10096">
        <ele>128.8</ele>
        <time>2021-04-26T13:46:26Z</time>
      </trkpt>
      <trkpt lat="48.5089" lon="3.10089">
        <ele>128.6</ele>
        <time>2021-04-26T13:46:30Z</time>
      </trkpt>
      <trkpt lat="48.50893" lon="3.10082">
        <ele>128.4</ele>
        <time>2021-04-26T13:46:34Z</time>
      </trkpt>
      <trkpt lat="48.50896" lon="3.10074">
        <ele>128.2</ele>
        <time>2021-04-26T13:46:37Z</time>
      </trkpt>
      <trkpt lat="48.50899" lon="3.10066">
        <ele>128.1</ele>
        <time>2021-04-26T13:46:40Z</time>
      </trkpt>
      <trkpt lat="48.50901" lon="3.10059">
        <ele>128</ele>
        <time>2021-04-26T13:46:44Z</time>
      </trkpt>
      <trkpt lat="48.50903" lon="3.10052">
        <ele>127.8</ele>
        <time>2021-04-26T13:46:50Z</time>
      </trkpt>
      <trkpt lat="48.50905" lon="3.10044">
        <ele>127.7</ele>
        <time>2021-04-26T13:46:55Z</time>
      </trkpt>
      <trkpt lat="48.50906" lon="3.10037">
        <ele>127.5</ele>
        <time>2021-04-26T13:46:59Z</time>
      </trkpt>
      <trkpt lat="48.50908" lon="3.1003">
        <ele>127.3</ele>
        <time>2021-04-26T13:47:03Z</time>
      </trkpt>
      <trkpt lat="48.50912" lon="3.10026">
        <ele>127.2</ele>
        <time>2021-04-26T13:47:07Z</time>
      </trkpt>
      <trkpt lat="48.50916" lon="3.10022">
        <ele>127.1</ele>
        <time>2021-04-26T13:47:13Z</time>
      </trkpt>
      <trkpt lat="48.50918" lon="3.10015">
        <ele>127.1</ele>
        <time>2021-04-26T13:47:18Z</time>
      </trkpt>
      <trkpt lat="48.50921" lon="3.1001">
        <ele>127</ele>
        <time>2021-04-26T13:47:22Z</time>
      </trkpt>
      <trkpt lat="48.50924" lon="3.10005">
        <ele>126.8</ele>
        <time>2021-04-26T13:47:26Z</time>
      </trkpt>
      <trkpt lat="48.50927" lon="3.1">
        <ele>126.9</ele>
        <time>2021-04-26T13:47:31Z</time>
      </trkpt>
      <trkpt lat="48.50931" lon="3.09996">
        <ele>127</ele>
        <time>2021-04-26T13:47:35Z</time>
      </trkpt>
      <trkpt lat="48.50934" lon="3.09991">
        <ele>127.2</ele>
        <time>2021-04-26T13:47:39Z</time>
      </trkpt>
      <trkpt lat="48.50939" lon="3.09986">
        <ele>127.4</ele>
        <time>2021-04-26T13:47:44Z</time>
      </trkpt>
      <trkpt lat="48.50942" lon="3.09981">
        <ele>128.2</ele>
        <time>2021-04-26T13:47:51Z</time>
      </trkpt>
      <trkpt lat="48.50945" lon="3.09975">
        <ele>128.8</ele>
        <time>2021-04-26T13:47:57Z</time>
      </trkpt>
      <trkpt lat="48.5095" lon="3.09971">
        <ele>128.6</ele>
        <time>2021-04-26T13:48:04Z</time>
      </trkpt>
      <trkpt lat="48.50954" lon="3.09967">
        <ele>128.5</ele>
        <time>2021-04-26T13:48:10Z</time>
      </trkpt>
      <trkpt lat="48.50959" lon="3.09966">
        <ele>128.5</ele>
        <time>2021-04-26T13:48:14Z</time>
      </trkpt>
      <trkpt lat="48.50963" lon="3.09967">
        <ele>128.6</ele>
        <time>2021-04-26T13:48:18Z</time>
      </trkpt>
      <trkpt lat="48.50968" lon="3.09968">
        <ele>128.4</ele>
        <time>2021-04-26T13:48:22Z</time>
      </trkpt>
      <trkpt lat="48.50973" lon="3.0997">
        <ele>128.5</ele>
        <time>2021-04-26T13:48:26Z</time>
      </trkpt>
      <trkpt lat="48.50978" lon="3.09972">
        <ele>128.9</ele>
        <time>2021-04-26T13:48:30Z</time>
      </trkpt>
      <trkpt lat="48.50983" lon="3.09974">
        <ele>130.2</ele>
        <time>2021-04-26T13:48:36Z</time>
      </trkpt>
      <trkpt lat="48.50988" lon="3.09979">
        <ele>131.3</ele>
        <time>2021-04-26T13:48:41Z</time>
      </trkpt>
      <trkpt lat="48.50992" lon="3.09983">
        <ele>132.2</ele>
        <time>2021-04-26T13:48:45Z</time>
      </trkpt>
      <trkpt lat="48.50995" lon="3.0999">
        <ele>132.8</ele>
        <time>2021-04-26T13:48:49Z</time>
      </trkpt>
      <trkpt lat="48.50998" lon="3.09997">
        <ele>133</ele>
        <time>2021-04-26T13:48:53Z</time>
      </trkpt>
      <trkpt lat="48.51001" lon="3.10004">
        <ele>132.5</ele>
        <time>2021-04-26T13:48:57Z</time>
      </trkpt>
      <trkpt lat="48.51005" lon="3.10008">
        <ele>132.2</ele>
        <time>2021-04-26T13:49:00Z</time>
      </trkpt>
      <trkpt lat="48.5101" lon="3.10011">
        <ele>131.8</ele>
        <time>2021-04-26T13:49:04Z</time>
      </trkpt>
      <trkpt lat="48.51014" lon="3.10016">
        <ele>131.2</ele>
        <time>2021-04-26T13:49:09Z</time>
      </trkpt>
      <trkpt lat="48.51019" lon="3.10019">
        <ele>130.5</ele>
        <time>2021-04-26T13:49:15Z</time>
      </trkpt>
      <trkpt lat="48.51023" lon="3.10022">
        <ele>130.1</ele>
        <time>2021-04-26T13:49:19Z</time>
      </trkpt>
      <trkpt lat="48.51028" lon="3.10025">
        <ele>129.2</ele>
        <time>2021-04-26T13:49:22Z</time>
      </trkpt>
      <trkpt lat="48.51033" lon="3.10024">
        <ele>127.4</ele>
        <time>2021-04-26T13:49:28Z</time>
      </trkpt>
      <trkpt lat="48.51038" lon="3.10027">
        <ele>126.8</ele>
        <time>2021-04-26T13:49:35Z</time>
      </trkpt>
      <trkpt lat="48.51042" lon="3.10029">
        <ele>126.9</ele>
        <time>2021-04-26T13:49:39Z</time>
      </trkpt>
      <trkpt lat="48.51047" lon="3.10032">
        <ele>126.5</ele>
        <time>2021-04-26T13:49:45Z</time>
      </trkpt>
      <trkpt lat="48.51052" lon="3.10033">
        <ele>126.5</ele>
        <time>2021-04-26T13:49:50Z</time>
      </trkpt>
      <trkpt lat="48.51056" lon="3.10035">
        <ele>126.1</ele>
        <time>2021-04-26T13:50:01Z</time>
      </trkpt>
      <trkpt lat="48.5106" lon="3.1004">
        <ele>126.5</ele>
        <time>2021-04-26T13:50:08Z</time>
      </trkpt>
      <trkpt lat="48.51065" lon="3.10045">
        <ele>126.7</ele>
        <time>2021-04-26T13:50:13Z</time>
      </trkpt>
      <trkpt lat="48.51068" lon="3.1005">
        <ele>126.8</ele>
        <time>2021-04-26T13:50:17Z</time>
      </trkpt>
      <trkpt lat="48.51073" lon="3.10053">
        <ele>126.9</ele>
        <time>2021-04-26T13:50:22Z</time>
      </trkpt>
      <trkpt lat="48.51078" lon="3.10055">
        <ele>127.1</ele>
        <time>2021-04-26T13:50:27Z</time>
      </trkpt>
      <trkpt lat="48.51083" lon="3.10055">
        <ele>127</ele>
        <time>2021-04-26T13:50:35Z</time>
      </trkpt>
      <trkpt lat="48.51088" lon="3.10052">
        <ele>127.1</ele>
        <time>2021-04-26T13:50:46Z</time>
      </trkpt>
      <trkpt lat="48.51093" lon="3.10053">
        <ele>127.8</ele>
        <time>2021-04-26T13:51:07Z</time>
      </trkpt>
      <trkpt lat="48.51061" lon="3.10038">
        <ele>122.7</ele>
        <time>2021-04-26T13:52:04Z</time>
      </trkpt>
      <trkpt lat="48.51071" lon="3.10036">
        <ele>121.3</ele>
        <time>2021-04-26T13:52:07Z</time>
      </trkpt>
      <trkpt lat="48.51077" lon="3.10036">
        <ele>120.3</ele>
        <time>2021-04-26T13:52:10Z</time>
      </trkpt>
      <trkpt lat="48.51083" lon="3.10035">
        <ele>117.9</ele>
        <time>2021-04-26T13:52:35Z</time>
      </trkpt>
      <trkpt lat="48.51089" lon="3.10032">
        <ele>118.5</ele>
        <time>2021-04-26T13:52:38Z</time>
      </trkpt>
      <trkpt lat="48.51094" lon="3.10029">
        <ele>121</ele>
        <time>2021-04-26T13:52:59Z</time>
      </trkpt>
      <trkpt lat="48.51098" lon="3.10034">
        <ele>121.1</ele>
        <time>2021-04-26T13:53:02Z</time>
      </trkpt>
      <trkpt lat="48.51094" lon="3.10039">
        <ele>121.7</ele>
        <time>2021-04-26T13:53:05Z</time>
      </trkpt>
      <trkpt lat="48.51093" lon="3.10032">
        <ele>123.2</ele>
        <time>2021-04-26T13:53:15Z</time>
      </trkpt>
    </trkseg>
  </trk>
</gpx>